Time,TemperatureF,DewpointF,PressureIn,WindDirection,WindDirectionDegrees,WindSpeedMPH,WindSpeedGustMPH,Humidity,HourlyPrecipIn,Conditions,Clouds,dailyrainin,SoftwareType,DateUTC
2013-03-02 00:00:00,27.7,7.1,29.53,West,270,6.3,7.6,41,0.00,,,0.00,VWS V13.01,2013-03-02 06:00:00,
2013-03-02 00:01:00,27.5,6.9,29.56,NW,315,5.4,11.0,41,0.00,,,0.00,VWS V13.01,2013-03-02 06:01:00,
2013-03-02 00:02:00,27.5,6.9,29.56,North,0,15.0,15.0,41,0.00,,,0.00,VWS V13.01,2013-03-02 06:02:00,
2013-03-02 00:03:00,27.5,6.9,29.56,NW,315,5.8,10.5,41,0.00,,,0.00,VWS V13.01,2013-03-02 06:03:00,
2013-03-02 00:04:00,27.5,6.9,29.56,NW,315,8.1,10.5,41,0.00,,,0.00,VWS V13.01,2013-03-02 06:04:00,
2013-03-02 00:05:00,27.5,6.9,29.56,NNW,338,11.0,11.0,41,0.00,,,0.00,VWS V13.01,2013-03-02 06:05:00,
2013-03-02 00:06:00,27.5,6.9,29.56,NW,315,7.6,11.9,41,0.00,,,0.00,VWS V13.01,2013-03-02 06:06:00,
2013-03-02 00:07:00,27.5,6.9,29.56,NW,315,3.1,7.6,41,0.00,,,0.00,VWS V13.01,2013-03-02 06:07:00,
2013-03-02 00:08:00,27.5,6.4,29.56,West,270,8.7,12.3,40,0.00,,,0.00,VWS V13.01,2013-03-02 06:08:00,
2013-03-02 00:09:00,27.5,6.4,29.56,North,0,8.7,12.3,40,0.00,,,0.00,VWS V13.01,2013-03-02 06:09:00,
2013-03-02 00:10:00,27.5,6.4,29.56,NW,315,10.1,10.5,40,0.00,,,0.00,VWS V13.01,2013-03-02 06:10:00,
2013-03-02 00:11:00,27.5,6.4,29.56,North,0,15.0,15.0,40,0.00,,,0.00,VWS V13.01,2013-03-02 06:11:00,
2013-03-02 00:12:00,27.5,6.4,29.56,NW,315,4.0,15.0,40,0.00,,,0.00,VWS V13.01,2013-03-02 06:12:00,
2013-03-02 00:13:00,27.5,6.4,29.56,NW,315,10.5,13.6,40,0.00,,,0.00,VWS V13.01,2013-03-02 06:13:00,
2013-03-02 00:14:00,27.5,6.4,29.56,NNW,338,15.0,15.0,40,0.00,,,0.00,VWS V13.01,2013-03-02 06:14:00,
2013-03-02 00:15:00,27.5,6.4,29.56,NNW,338,10.5,15.0,40,0.00,,,0.00,VWS V13.01,2013-03-02 06:15:00,
2013-03-02 00:16:00,27.5,6.4,29.56,NW,315,10.5,11.0,40,0.00,,,0.00,VWS V13.01,2013-03-02 06:16:00,
2013-03-02 00:17:00,27.3,6.7,29.56,North,0,3.1,10.5,41,0.00,,,0.00,VWS V13.01,2013-03-02 06:17:00,
2013-03-02 00:18:00,27.5,6.9,29.56,NW,315,10.5,10.5,41,0.00,,,0.00,VWS V13.01,2013-03-02 06:18:00,
2013-03-02 00:19:00,27.5,6.9,29.56,NW,315,6.7,10.5,41,0.00,,,0.00,VWS V13.01,2013-03-02 06:19:00,
2013-03-02 00:20:00,27.5,6.9,29.56,NW,315,10.5,10.5,41,0.00,,,0.00,VWS V13.01,2013-03-02 06:20:00,
2013-03-02 00:21:00,27.5,6.9,29.56,NNW,338,5.4,10.5,41,0.00,,,0.00,VWS V13.01,2013-03-02 06:21:00,
2013-03-02 00:22:00,27.5,6.9,29.56,North,0,8.3,12.3,41,0.00,,,0.00,VWS V13.01,2013-03-02 06:22:00,
2013-03-02 00:23:00,27.3,6.7,29.56,NW,315,10.5,10.5,41,0.00,,,0.00,VWS V13.01,2013-03-02 06:23:00,
2013-03-02 00:24:00,27.3,6.7,29.56,North,0,6.3,10.5,41,0.00,,,0.00,VWS V13.01,2013-03-02 06:24:00,
2013-03-02 00:25:00,27.3,6.7,29.56,NW,315,3.6,6.3,41,0.00,,,0.00,VWS V13.01,2013-03-02 06:25:00,
2013-03-02 00:26:00,27.3,6.7,29.56,NW,315,12.3,12.3,41,0.00,,,0.00,VWS V13.01,2013-03-02 06:26:00,
2013-03-02 00:27:00,27.3,6.7,29.56,NW,315,10.5,12.3,41,0.00,,,0.00,VWS V13.01,2013-03-02 06:27:00,
2013-03-02 00:28:00,27.3,6.7,29.56,North,0,5.8,10.5,41,0.00,,,0.00,VWS V13.01,2013-03-02 06:28:00,
2013-03-02 00:29:00,27.3,6.7,29.56,NNW,338,10.5,13.2,41,0.00,,,0.00,VWS V13.01,2013-03-02 06:29:00,
2013-03-02 00:30:00,27.3,6.7,29.56,NW,315,8.3,9.2,41,0.00,,,0.00,VWS V13.01,2013-03-02 06:30:00,
2013-03-02 00:31:00,27.3,6.7,29.56,NW,315,10.1,10.1,41,0.00,,,0.00,VWS V13.01,2013-03-02 06:31:00,
2013-03-02 00:32:00,27.3,6.7,29.56,North,0,11.0,12.3,41,0.00,,,0.00,VWS V13.01,2013-03-02 06:32:00,
2013-03-02 00:33:00,27.1,6.6,29.56,NW,315,7.6,12.8,41,0.00,,,0.00,VWS V13.01,2013-03-02 06:33:00,
2013-03-02 00:34:00,27.1,6.6,29.56,NW,315,10.5,10.5,41,0.00,,,0.00,VWS V13.01,2013-03-02 06:34:00,
2013-03-02 00:35:00,27.1,6.6,29.56,NW,315,9.2,10.5,41,0.00,,,0.00,VWS V13.01,2013-03-02 06:35:00,
2013-03-02 00:36:00,27.1,6.6,29.56,WNW,292,11.0,15.9,41,0.00,,,0.00,VWS V13.01,2013-03-02 06:36:00,
2013-03-02 00:37:00,27.1,6.6,29.56,NNW,338,10.5,11.0,41,0.00,,,0.00,VWS V13.01,2013-03-02 06:37:00,
2013-03-02 00:38:00,27.0,6.4,29.56,NW,315,15.0,15.0,41,0.00,,,0.00,VWS V13.01,2013-03-02 06:38:00,
2013-03-02 00:39:00,27.0,6.4,29.56,NW,315,12.8,15.0,41,0.00,,,0.00,VWS V13.01,2013-03-02 06:39:00,
2013-03-02 00:40:00,27.0,6.4,29.56,West,270,7.2,13.2,41,0.00,,,0.00,VWS V13.01,2013-03-02 06:40:00,
2013-03-02 00:41:00,27.0,6.4,29.56,NW,315,17.0,17.0,41,0.00,,,0.00,VWS V13.01,2013-03-02 06:41:00,
2013-03-02 00:42:00,27.0,6.4,29.56,NNW,338,11.9,17.0,41,0.00,,,0.00,VWS V13.01,2013-03-02 06:42:00,
2013-03-02 00:43:00,27.0,6.4,29.56,NNW,338,6.3,14.1,41,0.00,,,0.00,VWS V13.01,2013-03-02 06:43:00,
2013-03-02 00:44:00,27.0,6.4,29.56,NW,315,4.9,11.0,41,0.00,,,0.00,VWS V13.01,2013-03-02 06:44:00,
2013-03-02 00:45:00,27.0,6.4,29.56,NW,315,8.3,13.2,41,0.00,,,0.00,VWS V13.01,2013-03-02 06:45:00,
2013-03-02 00:46:00,27.0,6.4,29.56,North,0,7.6,8.3,41,0.00,,,0.00,VWS V13.01,2013-03-02 06:46:00,
2013-03-02 00:47:00,27.0,6.4,29.56,NW,315,8.1,12.3,41,0.00,,,0.00,VWS V13.01,2013-03-02 06:47:00,
2013-03-02 00:48:00,27.0,6.4,29.56,NW,315,8.7,12.3,41,0.00,,,0.00,VWS V13.01,2013-03-02 06:48:00,
2013-03-02 00:49:00,27.0,6.4,29.56,NW,315,6.3,8.7,41,0.00,,,0.00,VWS V13.01,2013-03-02 06:49:00,
2013-03-02 00:50:00,27.0,6.4,29.56,NNW,338,12.8,12.8,41,0.00,,,0.00,VWS V13.01,2013-03-02 06:50:00,
2013-03-02 00:51:00,27.0,6.4,29.56,NW,315,7.6,13.2,41,0.00,,,0.00,VWS V13.01,2013-03-02 06:51:00,
2013-03-02 00:52:00,27.0,6.4,29.56,North,0,10.1,11.9,41,0.00,,,0.00,VWS V13.01,2013-03-02 06:52:00,
2013-03-02 00:53:00,27.0,6.4,29.56,NW,315,5.4,10.1,41,0.00,,,0.00,VWS V13.01,2013-03-02 06:53:00,
2013-03-02 00:54:00,27.0,6.4,29.56,West,270,8.7,8.7,41,0.00,,,0.00,VWS V13.01,2013-03-02 06:54:00,
2013-03-02 00:55:00,27.0,6.4,29.56,NNW,338,8.7,8.7,41,0.00,,,0.00,VWS V13.01,2013-03-02 06:55:00,
2013-03-02 00:56:00,27.0,6.9,29.56,NW,315,2.7,8.7,42,0.00,,,0.00,VWS V13.01,2013-03-02 06:56:00,
2013-03-02 00:57:00,27.0,6.9,29.56,NW,315,7.2,8.3,42,0.00,,,0.00,VWS V13.01,2013-03-02 06:57:00,
2013-03-02 00:58:00,27.0,6.9,29.56,NNW,338,8.3,12.8,42,0.00,,,0.00,VWS V13.01,2013-03-02 06:58:00,
2013-03-02 00:59:00,27.0,6.9,29.56,NW,315,9.6,9.6,42,0.00,,,0.00,VWS V13.01,2013-03-02 06:59:00,
2013-03-02 01:00:00,27.0,6.9,29.56,NW,315,10.1,10.1,42,0.00,,,0.00,VWS V13.01,2013-03-02 07:00:00,
2013-03-02 01:01:00,27.0,6.9,29.56,NW,315,4.0,10.1,42,0.00,,,0.00,VWS V13.01,2013-03-02 07:01:00,
2013-03-02 01:02:00,27.0,6.9,29.56,NW,315,13.2,13.2,42,0.00,,,0.00,VWS V13.01,2013-03-02 07:02:00,
2013-03-02 01:03:00,27.0,6.9,29.56,WNW,292,10.5,13.2,42,0.00,,,0.00,VWS V13.01,2013-03-02 07:03:00,
2013-03-02 01:04:00,26.8,6.8,29.56,NW,315,7.6,10.1,42,0.00,,,0.00,VWS V13.01,2013-03-02 07:04:00,
2013-03-02 01:05:00,26.8,6.8,29.56,NW,315,8.7,11.4,42,0.00,,,0.00,VWS V13.01,2013-03-02 07:05:00,
2013-03-02 01:06:00,26.8,6.8,29.56,West,270,10.5,11.0,42,0.00,,,0.00,VWS V13.01,2013-03-02 07:06:00,
2013-03-02 01:07:00,26.8,6.8,29.56,NNW,338,11.0,11.0,42,0.00,,,0.00,VWS V13.01,2013-03-02 07:07:00,
2013-03-02 01:08:00,26.8,6.8,29.56,NW,315,8.1,11.0,42,0.00,,,0.00,VWS V13.01,2013-03-02 07:08:00,
2013-03-02 01:09:00,26.8,6.8,29.56,NW,315,7.6,8.1,42,0.00,,,0.00,VWS V13.01,2013-03-02 07:09:00,
2013-03-02 01:10:00,26.8,6.8,29.56,NNW,338,8.3,8.3,42,0.00,,,0.00,VWS V13.01,2013-03-02 07:10:00,
2013-03-02 01:11:00,26.8,6.8,29.56,NNW,338,11.0,11.4,42,0.00,,,0.00,VWS V13.01,2013-03-02 07:11:00,
2013-03-02 01:12:00,26.8,6.8,29.56,NW,315,8.1,11.0,42,0.00,,,0.00,VWS V13.01,2013-03-02 07:12:00,
2013-03-02 01:13:00,26.8,6.8,29.56,West,270,7.6,12.3,42,0.00,,,0.00,VWS V13.01,2013-03-02 07:13:00,
2013-03-02 01:14:00,26.8,6.8,29.56,North,0,4.9,4.9,42,0.00,,,0.00,VWS V13.01,2013-03-02 07:14:00,
2013-03-02 01:15:00,26.8,6.8,29.56,NNW,338,6.7,6.7,42,0.00,,,0.00,VWS V13.01,2013-03-02 07:15:00,
2013-03-02 01:16:00,26.8,6.8,29.56,West,270,8.1,12.8,42,0.00,,,0.00,VWS V13.01,2013-03-02 07:16:00,
2013-03-02 01:17:00,26.8,6.8,29.56,NW,315,7.6,8.7,42,0.00,,,0.00,VWS V13.01,2013-03-02 07:17:00,
2013-03-02 01:18:00,26.8,6.8,29.56,NW,315,10.5,10.5,42,0.00,,,0.00,VWS V13.01,2013-03-02 07:18:00,
2013-03-02 01:19:00,26.6,7.1,29.56,NNW,338,8.7,11.0,43,0.00,,,0.00,VWS V13.01,2013-03-02 07:19:00,
2013-03-02 01:20:00,26.6,7.1,29.56,NW,315,9.6,11.0,43,0.00,,,0.00,VWS V13.01,2013-03-02 07:20:00,
2013-03-02 01:21:00,26.6,7.1,29.56,North,0,7.6,9.6,43,0.00,,,0.00,VWS V13.01,2013-03-02 07:21:00,
2013-03-02 01:22:00,26.6,7.1,29.56,NW,315,6.3,8.1,43,0.00,,,0.00,VWS V13.01,2013-03-02 07:22:00,
2013-03-02 01:23:00,26.6,7.1,29.56,NW,315,5.8,10.1,43,0.00,,,0.00,VWS V13.01,2013-03-02 07:23:00,
2013-03-02 01:24:00,26.6,7.1,29.56,NW,315,3.6,6.3,43,0.00,,,0.00,VWS V13.01,2013-03-02 07:24:00,
2013-03-02 01:25:00,26.6,7.1,29.56,North,0,8.1,10.1,43,0.00,,,0.00,VWS V13.01,2013-03-02 07:25:00,
2013-03-02 01:26:00,26.6,7.1,29.56,NW,315,8.7,8.7,43,0.00,,,0.00,VWS V13.01,2013-03-02 07:26:00,
2013-03-02 01:27:00,26.6,7.1,29.56,NW,315,6.3,8.7,43,0.00,,,0.00,VWS V13.01,2013-03-02 07:27:00,
2013-03-02 01:28:00,26.6,7.1,29.56,North,0,8.3,9.2,43,0.00,,,0.00,VWS V13.01,2013-03-02 07:28:00,
2013-03-02 01:29:00,26.6,7.1,29.56,NW,315,4.9,5.8,43,0.00,,,0.00,VWS V13.01,2013-03-02 07:29:00,
2013-03-02 01:30:00,26.6,7.1,29.56,NW,315,11.0,11.0,43,0.00,,,0.00,VWS V13.01,2013-03-02 07:30:00,
2013-03-02 01:31:00,26.6,7.1,29.56,NW,315,9.6,11.0,43,0.00,,,0.00,VWS V13.01,2013-03-02 07:31:00,
2013-03-02 01:32:00,26.6,7.1,29.56,NNW,338,9.6,10.5,43,0.00,,,0.00,VWS V13.01,2013-03-02 07:32:00,
2013-03-02 01:33:00,26.6,7.1,29.56,NW,315,8.7,9.6,43,0.00,,,0.00,VWS V13.01,2013-03-02 07:33:00,
2013-03-02 01:34:00,26.6,7.1,29.56,NNW,338,7.2,8.3,43,0.00,,,0.00,VWS V13.01,2013-03-02 07:34:00,
2013-03-02 01:35:00,26.6,7.1,29.56,WNW,292,6.3,8.3,43,0.00,,,0.00,VWS V13.01,2013-03-02 07:35:00,
2013-03-02 01:36:00,26.6,7.1,29.56,NW,315,10.5,10.5,43,0.00,,,0.00,VWS V13.01,2013-03-02 07:36:00,
2013-03-02 01:37:00,26.6,7.1,29.56,NNW,338,7.6,13.2,43,0.00,,,0.00,VWS V13.01,2013-03-02 07:37:00,
2013-03-02 01:38:00,26.6,7.1,29.56,North,0,5.4,10.1,43,0.00,,,0.00,VWS V13.01,2013-03-02 07:38:00,
2013-03-02 01:39:00,26.6,7.1,29.56,North,0,5.4,5.4,43,0.00,,,0.00,VWS V13.01,2013-03-02 07:39:00,
2013-03-02 01:40:00,26.6,7.1,29.56,NNW,338,7.6,8.1,43,0.00,,,0.00,VWS V13.01,2013-03-02 07:40:00,
2013-03-02 01:41:00,26.6,7.1,29.56,NW,315,6.3,8.3,43,0.00,,,0.00,VWS V13.01,2013-03-02 07:41:00,
2013-03-02 01:42:00,26.6,7.1,29.56,NW,315,9.6,9.6,43,0.00,,,0.00,VWS V13.01,2013-03-02 07:42:00,
2013-03-02 01:43:00,26.6,7.1,29.56,NW,315,10.1,12.3,43,0.00,,,0.00,VWS V13.01,2013-03-02 07:43:00,
2013-03-02 01:44:00,26.4,7.0,29.56,WNW,292,8.7,9.2,43,0.00,,,0.00,VWS V13.01,2013-03-02 07:44:00,
2013-03-02 01:45:00,26.4,7.0,29.56,NW,315,12.8,12.8,43,0.00,,,0.00,VWS V13.01,2013-03-02 07:45:00,
2013-03-02 01:46:00,26.4,6.4,29.56,NW,315,10.1,14.5,42,0.00,,,0.00,VWS V13.01,2013-03-02 07:46:00,
2013-03-02 01:47:00,26.4,6.4,29.56,North,0,11.0,11.0,42,0.00,,,0.00,VWS V13.01,2013-03-02 07:47:00,
2013-03-02 01:48:00,26.4,6.4,29.56,NW,315,5.8,11.0,42,0.00,,,0.00,VWS V13.01,2013-03-02 07:48:00,
2013-03-02 01:49:00,26.4,6.4,29.56,NW,315,6.3,8.1,42,0.00,,,0.00,VWS V13.01,2013-03-02 07:49:00,
2013-03-02 01:50:00,26.4,7.0,29.56,NNW,338,8.3,8.3,43,0.00,,,0.00,VWS V13.01,2013-03-02 07:50:00,
2013-03-02 01:51:00,26.4,7.0,29.56,North,0,5.4,8.3,43,0.00,,,0.00,VWS V13.01,2013-03-02 07:51:00,
2013-03-02 01:52:00,26.4,7.0,29.56,NNW,338,7.2,9.6,43,0.00,,,0.00,VWS V13.01,2013-03-02 07:52:00,
2013-03-02 01:53:00,26.4,7.0,29.56,North,0,8.3,13.2,43,0.00,,,0.00,VWS V13.01,2013-03-02 07:53:00,
2013-03-02 01:54:00,26.4,7.0,29.56,NW,315,3.6,12.3,43,0.00,,,0.00,VWS V13.01,2013-03-02 07:54:00,
2013-03-02 01:55:00,26.4,7.0,29.56,NNW,338,6.3,12.3,43,0.00,,,0.00,VWS V13.01,2013-03-02 07:55:00,
2013-03-02 01:56:00,26.4,7.0,29.56,NNW,338,5.4,9.2,43,0.00,,,0.00,VWS V13.01,2013-03-02 07:56:00,
2013-03-02 01:57:00,26.2,6.8,29.56,NW,315,10.5,10.5,43,0.00,,,0.00,VWS V13.01,2013-03-02 07:57:00,
2013-03-02 01:58:00,26.2,6.8,29.56,NNW,338,5.8,11.0,43,0.00,,,0.00,VWS V13.01,2013-03-02 07:58:00,
2013-03-02 01:59:00,26.2,6.8,29.56,NW,315,9.6,14.5,43,0.00,,,0.00,VWS V13.01,2013-03-02 07:59:00,
2013-03-02 02:00:00,26.2,6.8,29.56,WNW,292,11.0,14.5,43,0.00,,,0.00,VWS V13.01,2013-03-02 08:00:00,
2013-03-02 02:01:00,26.2,6.8,29.56,NW,315,6.3,11.0,43,0.00,,,0.00,VWS V13.01,2013-03-02 08:01:00,
2013-03-02 02:02:00,26.2,6.8,29.56,NW,315,7.6,11.0,43,0.00,,,0.00,VWS V13.01,2013-03-02 08:02:00,
2013-03-02 02:03:00,26.2,6.8,29.56,NW,315,9.6,11.9,43,0.00,,,0.00,VWS V13.01,2013-03-02 08:03:00,
2013-03-02 02:04:00,26.2,6.8,29.56,West,270,7.6,11.0,43,0.00,,,0.00,VWS V13.01,2013-03-02 08:04:00,
2013-03-02 02:05:00,26.2,6.8,29.56,West,270,7.6,11.0,43,0.00,,,0.00,VWS V13.01,2013-03-02 08:05:00,
2013-03-02 02:06:00,26.2,6.8,29.56,North,0,12.3,13.6,43,0.00,,,0.00,VWS V13.01,2013-03-02 08:06:00,
2013-03-02 02:07:00,26.2,6.8,29.56,NW,315,9.6,12.3,43,0.00,,,0.00,VWS V13.01,2013-03-02 08:07:00,
2013-03-02 02:08:00,26.2,6.8,29.56,NW,315,7.2,9.6,43,0.00,,,0.00,VWS V13.01,2013-03-02 08:08:00,
2013-03-02 02:09:00,26.2,6.8,29.56,NW,315,10.1,10.1,43,0.00,,,0.00,VWS V13.01,2013-03-02 08:09:00,
2013-03-02 02:10:00,26.2,6.8,29.56,WNW,292,5.8,10.1,43,0.00,,,0.00,VWS V13.01,2013-03-02 08:10:00,
2013-03-02 02:11:00,26.2,6.8,29.56,NW,315,10.5,10.5,43,0.00,,,0.00,VWS V13.01,2013-03-02 08:11:00,
2013-03-02 02:12:00,26.2,6.8,29.56,NNW,338,7.2,10.5,43,0.00,,,0.00,VWS V13.01,2013-03-02 08:12:00,
2013-03-02 02:13:00,26.2,6.8,29.56,NNW,338,7.6,8.1,43,0.00,,,0.00,VWS V13.01,2013-03-02 08:13:00,
2013-03-02 02:14:00,26.2,6.8,29.56,North,0,3.1,7.6,43,0.00,,,0.00,VWS V13.01,2013-03-02 08:14:00,
2013-03-02 02:15:00,26.2,6.8,29.56,NW,315,6.3,8.3,43,0.00,,,0.00,VWS V13.01,2013-03-02 08:15:00,
2013-03-02 02:16:00,26.2,6.8,29.53,North,0,2.7,6.3,43,0.00,,,0.00,VWS V13.01,2013-03-02 08:16:00,
2013-03-02 02:17:00,26.2,6.8,29.53,NW,315,8.7,8.7,43,0.00,,,0.00,VWS V13.01,2013-03-02 08:17:00,
2013-03-02 02:18:00,26.2,6.8,29.53,NNW,338,3.1,8.7,43,0.00,,,0.00,VWS V13.01,2013-03-02 08:18:00,
2013-03-02 02:19:00,26.2,6.8,29.53,NW,315,9.6,9.6,43,0.00,,,0.00,VWS V13.01,2013-03-02 08:19:00,
2013-03-02 02:20:00,26.2,6.8,29.53,NW,315,7.2,10.1,43,0.00,,,0.00,VWS V13.01,2013-03-02 08:20:00,
2013-03-02 02:21:00,26.2,6.8,29.53,NW,315,6.7,8.1,43,0.00,,,0.00,VWS V13.01,2013-03-02 08:21:00,
2013-03-02 02:22:00,26.2,6.8,29.53,NNW,338,10.1,10.1,43,0.00,,,0.00,VWS V13.01,2013-03-02 08:22:00,
2013-03-02 02:23:00,26.2,6.8,29.53,NW,315,6.3,10.1,43,0.00,,,0.00,VWS V13.01,2013-03-02 08:23:00,
2013-03-02 02:24:00,26.1,6.6,29.53,NW,315,7.6,8.1,43,0.00,,,0.00,VWS V13.01,2013-03-02 08:24:00,
2013-03-02 02:25:00,26.2,6.8,29.53,NW,315,8.7,8.7,43,0.00,,,0.00,VWS V13.01,2013-03-02 08:25:00,
2013-03-02 02:26:00,26.2,6.8,29.53,NW,315,4.5,8.7,43,0.00,,,0.00,VWS V13.01,2013-03-02 08:26:00,
2013-03-02 02:27:00,26.2,6.8,29.53,NW,315,9.2,9.2,43,0.00,,,0.00,VWS V13.01,2013-03-02 08:27:00,
2013-03-02 02:28:00,26.2,6.8,29.53,NW,315,9.6,9.6,43,0.00,,,0.00,VWS V13.01,2013-03-02 08:28:00,
2013-03-02 02:29:00,26.1,6.6,29.53,NNW,338,6.7,10.1,43,0.00,,,0.00,VWS V13.01,2013-03-02 08:29:00,
2013-03-02 02:30:00,26.1,6.6,29.53,North,0,8.1,12.3,43,0.00,,,0.00,VWS V13.01,2013-03-02 08:30:00,
2013-03-02 02:31:00,26.1,6.6,29.53,North,0,6.7,8.1,43,0.00,,,0.00,VWS V13.01,2013-03-02 08:31:00,
2013-03-02 02:32:00,26.1,6.6,29.53,North,0,5.8,7.6,43,0.00,,,0.00,VWS V13.01,2013-03-02 08:32:00,
2013-03-02 02:33:00,26.1,6.6,29.53,NW,315,0.0,8.7,43,0.00,,,0.00,VWS V13.01,2013-03-02 08:33:00,
2013-03-02 02:34:00,26.1,6.6,29.53,North,0,5.4,5.4,43,0.00,,,0.00,VWS V13.01,2013-03-02 08:34:00,
2013-03-02 02:35:00,26.1,6.6,29.53,NW,315,8.1,8.1,43,0.00,,,0.00,VWS V13.01,2013-03-02 08:35:00,
2013-03-02 02:36:00,26.1,6.6,29.53,NNW,338,8.7,10.1,43,0.00,,,0.00,VWS V13.01,2013-03-02 08:36:00,
2013-03-02 02:37:00,26.1,6.6,29.53,NNW,338,4.5,8.7,43,0.00,,,0.00,VWS V13.01,2013-03-02 08:37:00,
2013-03-02 02:38:00,26.1,6.6,29.53,NW,315,8.7,13.2,43,0.00,,,0.00,VWS V13.01,2013-03-02 08:38:00,
2013-03-02 02:39:00,26.1,6.6,29.53,NW,315,6.3,8.7,43,0.00,,,0.00,VWS V13.01,2013-03-02 08:39:00,
2013-03-02 02:40:00,26.1,6.6,29.53,North,0,6.3,6.3,43,0.00,,,0.00,VWS V13.01,2013-03-02 08:40:00,
2013-03-02 02:41:00,26.1,6.6,29.53,NW,315,6.3,8.1,43,0.00,,,0.00,VWS V13.01,2013-03-02 08:41:00,
2013-03-02 02:42:00,26.1,6.6,29.53,NNW,338,8.3,13.2,43,0.00,,,0.00,VWS V13.01,2013-03-02 08:42:00,
2013-03-02 02:43:00,26.1,6.6,29.53,NNE,22,5.4,8.3,43,0.00,,,0.00,VWS V13.01,2013-03-02 08:43:00,
2013-03-02 02:44:00,26.1,6.6,29.53,NW,315,7.6,10.1,43,0.00,,,0.00,VWS V13.01,2013-03-02 08:44:00,
2013-03-02 02:45:00,26.1,6.6,29.53,North,0,8.1,8.1,43,0.00,,,0.00,VWS V13.01,2013-03-02 08:45:00,
2013-03-02 02:46:00,26.1,6.6,29.53,North,0,7.2,8.3,43,0.00,,,0.00,VWS V13.01,2013-03-02 08:46:00,
2013-03-02 02:47:00,26.1,6.6,29.53,NNW,338,8.1,8.7,43,0.00,,,0.00,VWS V13.01,2013-03-02 08:47:00,
2013-03-02 02:48:00,26.1,6.6,29.53,North,0,4.0,8.1,43,0.00,,,0.00,VWS V13.01,2013-03-02 08:48:00,
2013-03-02 02:49:00,26.1,6.6,29.53,North,0,6.7,8.7,43,0.00,,,0.00,VWS V13.01,2013-03-02 08:49:00,
2013-03-02 02:50:00,26.1,6.6,29.53,NW,315,5.8,10.1,43,0.00,,,0.00,VWS V13.01,2013-03-02 08:50:00,
2013-03-02 02:51:00,25.9,6.5,29.53,NNW,338,6.3,10.1,43,0.00,,,0.00,VWS V13.01,2013-03-02 08:51:00,
2013-03-02 02:52:00,26.1,6.6,29.53,NW,315,7.2,8.3,43,0.00,,,0.00,VWS V13.01,2013-03-02 08:52:00,
2013-03-02 02:53:00,26.1,6.6,29.53,NW,315,5.8,8.1,43,0.00,,,0.00,VWS V13.01,2013-03-02 08:53:00,
2013-03-02 02:54:00,26.1,6.6,29.53,NW,315,4.9,8.7,43,0.00,,,0.00,VWS V13.01,2013-03-02 08:54:00,
2013-03-02 02:55:00,26.1,6.6,29.53,NW,315,7.2,7.6,43,0.00,,,0.00,VWS V13.01,2013-03-02 08:55:00,
2013-03-02 02:56:00,26.1,6.6,29.53,NNW,338,4.9,10.5,43,0.00,,,0.00,VWS V13.01,2013-03-02 08:56:00,
2013-03-02 02:57:00,26.1,6.6,29.53,NW,315,5.8,10.1,43,0.00,,,0.00,VWS V13.01,2013-03-02 08:57:00,
2013-03-02 02:58:00,26.1,6.6,29.53,North,0,5.8,7.6,43,0.00,,,0.00,VWS V13.01,2013-03-02 08:58:00,
2013-03-02 02:59:00,26.1,6.6,29.53,NW,315,4.0,7.2,43,0.00,,,0.00,VWS V13.01,2013-03-02 08:59:00,
2013-03-02 03:00:00,25.9,6.5,29.53,NW,315,9.2,9.2,43,0.00,,,0.00,VWS V13.01,2013-03-02 09:00:00,
2013-03-02 03:01:00,25.9,6.5,29.53,North,0,7.6,9.2,43,0.00,,,0.00,VWS V13.01,2013-03-02 09:01:00,
2013-03-02 03:02:00,26.1,6.6,29.53,NW,315,5.8,7.6,43,0.00,,,0.00,VWS V13.01,2013-03-02 09:02:00,
2013-03-02 03:03:00,26.1,6.6,29.53,NW,315,8.7,8.7,43,0.00,,,0.00,VWS V13.01,2013-03-02 09:03:00,
2013-03-02 03:04:00,25.9,6.5,29.53,North,0,8.3,10.1,43,0.00,,,0.00,VWS V13.01,2013-03-02 09:04:00,
2013-03-02 03:05:00,25.9,6.5,29.53,NW,315,5.8,5.8,43,0.00,,,0.00,VWS V13.01,2013-03-02 09:05:00,
2013-03-02 03:06:00,25.9,6.5,29.53,NW,315,8.3,8.3,43,0.00,,,0.00,VWS V13.01,2013-03-02 09:06:00,
2013-03-02 03:07:00,25.9,6.5,29.53,NW,315,4.9,8.3,43,0.00,,,0.00,VWS V13.01,2013-03-02 09:07:00,
2013-03-02 03:08:00,25.9,6.5,29.53,NW,315,10.1,10.1,43,0.00,,,0.00,VWS V13.01,2013-03-02 09:08:00,
2013-03-02 03:09:00,25.9,6.5,29.53,North,0,6.3,10.1,43,0.00,,,0.00,VWS V13.01,2013-03-02 09:09:00,
2013-03-02 03:10:00,25.9,6.5,29.53,North,0,8.3,8.3,43,0.00,,,0.00,VWS V13.01,2013-03-02 09:10:00,
2013-03-02 03:11:00,25.9,6.5,29.53,NW,315,11.9,11.9,43,0.00,,,0.00,VWS V13.01,2013-03-02 09:11:00,
2013-03-02 03:12:00,25.9,6.5,29.53,NW,315,10.5,11.9,43,0.00,,,0.00,VWS V13.01,2013-03-02 09:12:00,
2013-03-02 03:13:00,25.9,6.5,29.53,West,270,10.5,10.5,43,0.00,,,0.00,VWS V13.01,2013-03-02 09:13:00,
2013-03-02 03:14:00,25.9,6.5,29.53,North,0,7.6,10.5,43,0.00,,,0.00,VWS V13.01,2013-03-02 09:14:00,
2013-03-02 03:15:00,26.1,6.6,29.53,NNW,338,5.4,9.6,43,0.00,,,0.00,VWS V13.01,2013-03-02 09:15:00,
2013-03-02 03:16:00,25.9,6.5,29.53,NW,315,9.2,9.6,43,0.00,,,0.00,VWS V13.01,2013-03-02 09:16:00,
2013-03-02 03:17:00,26.1,6.6,29.53,North,0,4.9,9.2,43,0.00,,,0.00,VWS V13.01,2013-03-02 09:17:00,
2013-03-02 03:18:00,26.1,6.6,29.53,NW,315,7.6,10.1,43,0.00,,,0.00,VWS V13.01,2013-03-02 09:18:00,
2013-03-02 03:19:00,26.1,6.6,29.53,North,0,7.6,11.0,43,0.00,,,0.00,VWS V13.01,2013-03-02 09:19:00,
2013-03-02 03:20:00,26.1,6.6,29.53,NW,315,5.4,9.6,43,0.00,,,0.00,VWS V13.01,2013-03-02 09:20:00,
2013-03-02 03:21:00,26.1,6.6,29.53,NW,315,13.2,13.2,43,0.00,,,0.00,VWS V13.01,2013-03-02 09:21:00,
2013-03-02 03:22:00,25.9,6.0,29.53,NW,315,9.6,15.0,42,0.00,,,0.00,VWS V13.01,2013-03-02 09:22:00,
2013-03-02 03:23:00,25.9,6.0,29.53,West,270,12.3,12.3,42,0.00,,,0.00,VWS V13.01,2013-03-02 09:23:00,
2013-03-02 03:24:00,25.9,6.0,29.53,NW,315,12.3,12.8,42,0.00,,,0.00,VWS V13.01,2013-03-02 09:24:00,
2013-03-02 03:25:00,25.9,6.0,29.53,NW,315,5.8,10.1,42,0.00,,,0.00,VWS V13.01,2013-03-02 09:25:00,
2013-03-02 03:26:00,25.9,6.0,29.53,NW,315,9.2,10.1,42,0.00,,,0.00,VWS V13.01,2013-03-02 09:26:00,
2013-03-02 03:27:00,25.9,6.0,29.53,NNW,338,8.3,10.5,42,0.00,,,0.00,VWS V13.01,2013-03-02 09:27:00,
2013-03-02 03:28:00,25.9,6.0,29.53,NW,315,8.1,8.3,42,0.00,,,0.00,VWS V13.01,2013-03-02 09:28:00,
2013-03-02 03:29:00,25.9,6.0,29.53,NW,315,11.0,14.1,42,0.00,,,0.00,VWS V13.01,2013-03-02 09:29:00,
2013-03-02 03:30:00,25.9,6.0,29.53,NNW,338,10.5,11.4,42,0.00,,,0.00,VWS V13.01,2013-03-02 09:30:00,
2013-03-02 03:31:00,25.9,6.0,29.53,NW,315,8.3,11.4,42,0.00,,,0.00,VWS V13.01,2013-03-02 09:31:00,
2013-03-02 03:32:00,25.9,6.0,29.53,NW,315,10.1,10.1,42,0.00,,,0.00,VWS V13.01,2013-03-02 09:32:00,
2013-03-02 03:33:00,25.9,6.0,29.53,NNW,338,5.4,10.1,42,0.00,,,0.00,VWS V13.01,2013-03-02 09:33:00,
2013-03-02 03:34:00,25.9,6.0,29.53,NNW,338,10.1,13.2,42,0.00,,,0.00,VWS V13.01,2013-03-02 09:34:00,
2013-03-02 03:35:00,25.9,5.4,29.53,North,0,8.7,12.3,41,0.00,,,0.00,VWS V13.01,2013-03-02 09:35:00,
2013-03-02 03:36:00,25.9,5.4,29.53,NW,315,9.6,12.3,41,0.00,,,0.00,VWS V13.01,2013-03-02 09:36:00,
2013-03-02 03:37:00,25.9,5.4,29.53,NW,315,9.6,10.5,41,0.00,,,0.00,VWS V13.01,2013-03-02 09:37:00,
2013-03-02 03:38:00,25.9,5.4,29.53,NW,315,7.6,11.4,41,0.00,,,0.00,VWS V13.01,2013-03-02 09:38:00,
2013-03-02 03:39:00,25.9,5.4,29.53,NNW,338,8.3,8.3,41,0.00,,,0.00,VWS V13.01,2013-03-02 09:39:00,
2013-03-02 03:40:00,25.9,5.4,29.53,NNW,338,11.0,11.0,41,0.00,,,0.00,VWS V13.01,2013-03-02 09:40:00,
2013-03-02 03:41:00,25.9,5.4,29.53,North,0,10.5,11.0,41,0.00,,,0.00,VWS V13.01,2013-03-02 09:41:00,
2013-03-02 03:42:00,25.9,5.4,29.53,NW,315,9.6,10.5,41,0.00,,,0.00,VWS V13.01,2013-03-02 09:42:00,
2013-03-02 03:43:00,25.9,5.4,29.53,NNW,338,10.5,10.5,41,0.00,,,0.00,VWS V13.01,2013-03-02 09:43:00,
2013-03-02 03:44:00,25.9,5.4,29.53,NW,315,4.9,10.5,41,0.00,,,0.00,VWS V13.01,2013-03-02 09:44:00,
2013-03-02 03:45:00,25.9,5.4,29.53,North,0,9.6,10.5,41,0.00,,,0.00,VWS V13.01,2013-03-02 09:45:00,
2013-03-02 03:46:00,25.9,5.4,29.53,NW,315,8.3,10.5,41,0.00,,,0.00,VWS V13.01,2013-03-02 09:46:00,
2013-03-02 03:47:00,25.9,5.4,29.53,WNW,292,7.2,8.3,41,0.00,,,0.00,VWS V13.01,2013-03-02 09:47:00,
2013-03-02 03:48:00,25.9,5.4,29.53,NW,315,8.7,10.5,41,0.00,,,0.00,VWS V13.01,2013-03-02 09:48:00,
2013-03-02 03:49:00,25.9,5.4,29.53,NW,315,5.8,8.7,41,0.00,,,0.00,VWS V13.01,2013-03-02 09:49:00,
2013-03-02 03:50:00,25.9,5.4,29.53,North,0,8.3,14.1,41,0.00,,,0.00,VWS V13.01,2013-03-02 09:50:00,
2013-03-02 03:51:00,25.9,4.9,29.53,North,0,8.3,14.1,40,0.00,,,0.00,VWS V13.01,2013-03-02 09:51:00,
2013-03-02 03:52:00,25.9,4.9,29.53,NW,315,10.5,10.5,40,0.00,,,0.00,VWS V13.01,2013-03-02 09:52:00,
2013-03-02 03:53:00,25.9,4.3,29.53,NNW,338,7.6,12.8,39,0.00,,,0.00,VWS V13.01,2013-03-02 09:53:00,
2013-03-02 03:54:00,25.9,4.3,29.53,NW,315,8.1,8.7,39,0.00,,,0.00,VWS V13.01,2013-03-02 09:54:00,
2013-03-02 03:55:00,25.9,4.3,29.53,North,0,5.4,11.0,39,0.00,,,0.00,VWS V13.01,2013-03-02 09:55:00,
2013-03-02 03:56:00,25.9,4.3,29.53,North,0,5.4,11.0,39,0.00,,,0.00,VWS V13.01,2013-03-02 09:56:00,
2013-03-02 03:57:00,26.1,4.5,29.53,NW,315,9.2,9.2,39,0.00,,,0.00,VWS V13.01,2013-03-02 09:57:00,
2013-03-02 03:58:00,26.1,4.5,29.53,NW,315,6.3,9.2,39,0.00,,,0.00,VWS V13.01,2013-03-02 09:58:00,
2013-03-02 03:59:00,26.1,5.1,29.53,North,0,3.6,10.5,40,0.00,,,0.00,VWS V13.01,2013-03-02 09:59:00,
2013-03-02 04:00:00,26.1,5.1,29.53,NNW,338,6.3,7.2,40,0.00,,,0.00,VWS V13.01,2013-03-02 10:00:00,
2013-03-02 04:01:00,26.1,5.1,29.53,NW,315,8.1,11.0,40,0.00,,,0.00,VWS V13.01,2013-03-02 10:01:00,
2013-03-02 04:02:00,26.1,5.1,29.53,NW,315,10.1,10.1,40,0.00,,,0.00,VWS V13.01,2013-03-02 10:02:00,
2013-03-02 04:03:00,26.1,5.1,29.53,NNW,338,9.6,10.1,40,0.00,,,0.00,VWS V13.01,2013-03-02 10:03:00,
2013-03-02 04:04:00,26.1,5.1,29.53,West,270,8.3,9.6,40,0.00,,,0.00,VWS V13.01,2013-03-02 10:04:00,
2013-03-02 04:05:00,26.1,4.5,29.53,NW,315,12.3,12.3,39,0.00,,,0.00,VWS V13.01,2013-03-02 10:05:00,
2013-03-02 04:06:00,26.1,3.9,29.53,NW,315,6.3,12.3,38,0.00,,,0.00,VWS V13.01,2013-03-02 10:06:00,
2013-03-02 04:07:00,26.1,3.9,29.53,NE,45,8.7,11.0,38,0.00,,,0.00,VWS V13.01,2013-03-02 10:07:00,
2013-03-02 04:08:00,26.1,3.4,29.53,NNW,338,4.0,8.7,37,0.00,,,0.00,VWS V13.01,2013-03-02 10:08:00,
2013-03-02 04:09:00,26.1,3.9,29.53,NW,315,6.7,6.7,38,0.00,,,0.00,VWS V13.01,2013-03-02 10:09:00,
2013-03-02 04:10:00,26.1,3.9,29.53,NW,315,10.5,10.5,38,0.00,,,0.00,VWS V13.01,2013-03-02 10:10:00,
2013-03-02 04:11:00,26.1,3.9,29.53,NW,315,6.3,11.0,38,0.00,,,0.00,VWS V13.01,2013-03-02 10:11:00,
2013-03-02 04:12:00,26.1,3.9,29.53,NW,315,5.4,7.6,38,0.00,,,0.00,VWS V13.01,2013-03-02 10:12:00,
2013-03-02 04:13:00,26.1,3.9,29.53,NNW,338,10.5,10.5,38,0.00,,,0.00,VWS V13.01,2013-03-02 10:13:00,
2013-03-02 04:14:00,26.1,3.9,29.53,NW,315,10.5,10.5,38,0.00,,,0.00,VWS V13.01,2013-03-02 10:14:00,
2013-03-02 04:15:00,26.1,3.9,29.53,NW,315,4.0,11.0,38,0.00,,,0.00,VWS V13.01,2013-03-02 10:15:00,
2013-03-02 04:16:00,26.1,3.9,29.53,NNW,338,3.1,7.6,38,0.00,,,0.00,VWS V13.01,2013-03-02 10:16:00,
2013-03-02 04:17:00,26.1,3.4,29.53,WNW,292,8.7,8.7,37,0.00,,,0.00,VWS V13.01,2013-03-02 10:17:00,
2013-03-02 04:18:00,26.1,3.4,29.53,WNW,292,10.1,10.1,37,0.00,,,0.00,VWS V13.01,2013-03-02 10:18:00,
2013-03-02 04:19:00,26.1,3.4,29.53,West,270,6.3,10.1,37,0.00,,,0.00,VWS V13.01,2013-03-02 10:19:00,
2013-03-02 04:20:00,26.1,3.4,29.53,WNW,292,8.3,9.6,37,0.00,,,0.00,VWS V13.01,2013-03-02 10:20:00,
2013-03-02 04:21:00,26.1,3.4,29.53,NNW,338,3.1,8.3,37,0.00,,,0.00,VWS V13.01,2013-03-02 10:21:00,
2013-03-02 04:22:00,26.1,3.4,29.53,NNW,338,3.1,5.8,37,0.00,,,0.00,VWS V13.01,2013-03-02 10:22:00,
2013-03-02 04:23:00,26.1,3.4,29.53,NW,315,5.8,10.1,37,0.00,,,0.00,VWS V13.01,2013-03-02 10:23:00,
2013-03-02 04:24:00,26.1,3.4,29.53,NW,315,10.1,10.5,37,0.00,,,0.00,VWS V13.01,2013-03-02 10:24:00,
2013-03-02 04:25:00,26.1,2.8,29.53,NW,315,4.5,10.1,36,0.00,,,0.00,VWS V13.01,2013-03-02 10:25:00,
2013-03-02 04:26:00,26.1,3.4,29.53,NW,315,11.0,11.0,37,0.00,,,0.00,VWS V13.01,2013-03-02 10:26:00,
2013-03-02 04:27:00,26.1,2.8,29.53,NW,315,11.0,12.3,36,0.00,,,0.00,VWS V13.01,2013-03-02 10:27:00,
2013-03-02 04:28:00,26.1,2.8,29.53,NW,315,11.4,11.4,36,0.00,,,0.00,VWS V13.01,2013-03-02 10:28:00,
2013-03-02 04:29:00,26.1,2.8,29.53,WNW,292,4.9,12.8,36,0.00,,,0.00,VWS V13.01,2013-03-02 10:29:00,
2013-03-02 04:30:00,26.1,2.8,29.53,West,270,7.6,7.6,36,0.00,,,0.00,VWS V13.01,2013-03-02 10:30:00,
2013-03-02 04:31:00,26.1,2.8,29.53,NW,315,5.8,7.6,36,0.00,,,0.00,VWS V13.01,2013-03-02 10:31:00,
2013-03-02 04:32:00,26.1,2.8,29.53,NNW,338,12.3,12.3,36,0.00,,,0.00,VWS V13.01,2013-03-02 10:32:00,
2013-03-02 04:33:00,26.1,2.8,29.53,NW,315,5.4,12.3,36,0.00,,,0.00,VWS V13.01,2013-03-02 10:33:00,
2013-03-02 04:34:00,26.1,2.8,29.53,WNW,292,7.6,13.2,36,0.00,,,0.00,VWS V13.01,2013-03-02 10:34:00,
2013-03-02 04:35:00,26.1,2.8,29.53,NW,315,7.6,8.7,36,0.00,,,0.00,VWS V13.01,2013-03-02 10:35:00,
2013-03-02 04:36:00,26.1,2.8,29.53,NW,315,8.3,8.3,36,0.00,,,0.00,VWS V13.01,2013-03-02 10:36:00,
2013-03-02 04:37:00,26.1,2.8,29.53,NW,315,9.6,9.6,36,0.00,,,0.00,VWS V13.01,2013-03-02 10:37:00,
2013-03-02 04:38:00,26.1,2.8,29.53,WNW,292,7.6,9.6,36,0.00,,,0.00,VWS V13.01,2013-03-02 10:38:00,
2013-03-02 04:39:00,26.1,2.8,29.53,NW,315,8.1,8.1,36,0.00,,,0.00,VWS V13.01,2013-03-02 10:39:00,
2013-03-02 04:40:00,26.1,2.8,29.53,NNW,338,8.3,8.3,36,0.00,,,0.00,VWS V13.01,2013-03-02 10:40:00,
2013-03-02 04:41:00,26.1,2.8,29.53,WNW,292,8.1,9.6,36,0.00,,,0.00,VWS V13.01,2013-03-02 10:41:00,
2013-03-02 04:42:00,26.1,2.8,29.53,NW,315,9.6,9.6,36,0.00,,,0.00,VWS V13.01,2013-03-02 10:42:00,
2013-03-02 04:43:00,26.1,2.8,29.53,NNW,338,9.6,9.6,36,0.00,,,0.00,VWS V13.01,2013-03-02 10:43:00,
2013-03-02 04:44:00,26.1,2.8,29.53,NW,315,8.3,9.6,36,0.00,,,0.00,VWS V13.01,2013-03-02 10:44:00,
2013-03-02 04:45:00,26.1,2.8,29.53,NW,315,3.1,8.3,36,0.00,,,0.00,VWS V13.01,2013-03-02 10:45:00,
2013-03-02 04:46:00,26.1,2.8,29.53,NW,315,8.1,8.1,36,0.00,,,0.00,VWS V13.01,2013-03-02 10:46:00,
2013-03-02 04:47:00,26.1,2.8,29.53,North,0,8.7,8.7,36,0.00,,,0.00,VWS V13.01,2013-03-02 10:47:00,
2013-03-02 04:48:00,26.1,2.8,29.53,NW,315,9.6,10.1,36,0.00,,,0.00,VWS V13.01,2013-03-02 10:48:00,
2013-03-02 04:49:00,26.1,2.8,29.53,NW,315,10.5,10.5,36,0.00,,,0.00,VWS V13.01,2013-03-02 10:49:00,
2013-03-02 04:50:00,26.1,2.2,29.53,NNW,338,5.8,10.5,35,0.00,,,0.00,VWS V13.01,2013-03-02 10:50:00,
2013-03-02 04:51:00,26.1,2.2,29.53,NW,315,7.6,12.3,35,0.00,,,0.00,VWS V13.01,2013-03-02 10:51:00,
2013-03-02 04:52:00,26.1,2.8,29.53,WNW,292,6.3,7.6,36,0.00,,,0.00,VWS V13.01,2013-03-02 10:52:00,
2013-03-02 04:53:00,26.1,2.8,29.53,NNW,338,5.8,10.5,36,0.00,,,0.00,VWS V13.01,2013-03-02 10:53:00,
2013-03-02 04:54:00,26.1,2.8,29.53,WNW,292,6.3,10.1,36,0.00,,,0.00,VWS V13.01,2013-03-02 10:54:00,
2013-03-02 04:55:00,26.1,2.2,29.53,NW,315,2.7,9.6,35,0.00,,,0.00,VWS V13.01,2013-03-02 10:55:00,
2013-03-02 04:56:00,26.1,2.2,29.53,NW,315,8.3,10.1,35,0.00,,,0.00,VWS V13.01,2013-03-02 10:56:00,
2013-03-02 04:57:00,26.1,2.2,29.53,WNW,292,5.4,9.6,35,0.00,,,0.00,VWS V13.01,2013-03-02 10:57:00,
2013-03-02 04:58:00,26.1,2.2,29.53,NW,315,12.3,12.3,35,0.00,,,0.00,VWS V13.01,2013-03-02 10:58:00,
2013-03-02 04:59:00,26.1,2.2,29.53,WNW,292,8.3,12.3,35,0.00,,,0.00,VWS V13.01,2013-03-02 10:59:00,
2013-03-02 05:00:00,26.1,2.2,29.53,NW,315,3.1,10.1,35,0.00,,,0.00,VWS V13.01,2013-03-02 11:00:00,
2013-03-02 05:01:00,26.1,2.2,29.53,NW,315,8.7,8.7,35,0.00,,,0.00,VWS V13.01,2013-03-02 11:01:00,
2013-03-02 05:02:00,26.1,2.2,29.53,North,0,8.1,9.2,35,0.00,,,0.00,VWS V13.01,2013-03-02 11:02:00,
2013-03-02 05:03:00,26.1,2.2,29.53,NNW,338,6.3,9.6,35,0.00,,,0.00,VWS V13.01,2013-03-02 11:03:00,
2013-03-02 05:04:00,26.1,2.2,29.53,NW,315,4.0,7.6,35,0.00,,,0.00,VWS V13.01,2013-03-02 11:04:00,
2013-03-02 05:05:00,26.1,2.2,29.53,NW,315,10.1,12.3,35,0.00,,,0.00,VWS V13.01,2013-03-02 11:05:00,
2013-03-02 05:06:00,26.1,2.2,29.53,NW,315,6.3,10.1,35,0.00,,,0.00,VWS V13.01,2013-03-02 11:06:00,
2013-03-02 05:07:00,26.1,1.5,29.53,NW,315,11.9,11.9,34,0.00,,,0.00,VWS V13.01,2013-03-02 11:07:00,
2013-03-02 05:08:00,26.1,1.5,29.53,WNW,292,6.3,11.9,34,0.00,,,0.00,VWS V13.01,2013-03-02 11:08:00,
2013-03-02 05:09:00,26.1,1.5,29.53,NNW,338,8.1,8.1,34,0.00,,,0.00,VWS V13.01,2013-03-02 11:09:00,
2013-03-02 05:10:00,26.1,1.5,29.53,NW,315,7.6,8.1,34,0.00,,,0.00,VWS V13.01,2013-03-02 11:10:00,
2013-03-02 05:11:00,26.1,2.2,29.53,NW,315,7.6,8.3,35,0.00,,,0.00,VWS V13.01,2013-03-02 11:11:00,
2013-03-02 05:12:00,26.1,2.2,29.53,NW,315,7.6,10.1,35,0.00,,,0.00,VWS V13.01,2013-03-02 11:12:00,
2013-03-02 05:13:00,26.1,2.2,29.53,NNW,338,8.1,10.1,35,0.00,,,0.00,VWS V13.01,2013-03-02 11:13:00,
2013-03-02 05:14:00,26.1,2.2,29.53,North,0,5.8,8.7,35,0.00,,,0.00,VWS V13.01,2013-03-02 11:14:00,
2013-03-02 05:15:00,26.1,2.2,29.53,NW,315,5.8,5.8,35,0.00,,,0.00,VWS V13.01,2013-03-02 11:15:00,
2013-03-02 05:16:00,26.1,2.2,29.53,NNW,338,4.0,6.7,35,0.00,,,0.00,VWS V13.01,2013-03-02 11:16:00,
2013-03-02 05:17:00,26.1,1.5,29.53,NW,315,10.1,10.1,34,0.00,,,0.00,VWS V13.01,2013-03-02 11:17:00,
2013-03-02 05:18:00,26.1,1.5,29.53,NNW,338,11.0,13.2,34,0.00,,,0.00,VWS V13.01,2013-03-02 11:18:00,
2013-03-02 05:19:00,26.1,1.5,29.53,NW,315,2.7,11.0,34,0.00,,,0.00,VWS V13.01,2013-03-02 11:19:00,
2013-03-02 05:20:00,26.1,1.5,29.53,NW,315,8.3,8.3,34,0.00,,,0.00,VWS V13.01,2013-03-02 11:20:00,
2013-03-02 05:21:00,26.1,1.5,29.53,NW,315,8.3,12.3,34,0.00,,,0.00,VWS V13.01,2013-03-02 11:21:00,
2013-03-02 05:22:00,26.1,1.5,29.53,NW,315,8.1,8.3,34,0.00,,,0.00,VWS V13.01,2013-03-02 11:22:00,
2013-03-02 05:23:00,26.1,1.5,29.53,NW,315,7.6,10.1,34,0.00,,,0.00,VWS V13.01,2013-03-02 11:23:00,
2013-03-02 05:24:00,26.1,1.5,29.53,NW,315,5.4,9.6,34,0.00,,,0.00,VWS V13.01,2013-03-02 11:24:00,
2013-03-02 05:25:00,26.1,1.5,29.53,North,0,5.8,7.6,34,0.00,,,0.00,VWS V13.01,2013-03-02 11:25:00,
2013-03-02 05:26:00,26.1,1.5,29.53,NNW,338,7.2,8.1,34,0.00,,,0.00,VWS V13.01,2013-03-02 11:26:00,
2013-03-02 05:27:00,26.1,1.5,29.53,NNW,338,5.4,8.1,34,0.00,,,0.00,VWS V13.01,2013-03-02 11:27:00,
2013-03-02 05:28:00,26.1,1.5,29.53,West,270,3.6,8.1,34,0.00,,,0.00,VWS V13.01,2013-03-02 11:28:00,
2013-03-02 05:29:00,26.1,1.5,29.53,NW,315,12.8,12.8,34,0.00,,,0.00,VWS V13.01,2013-03-02 11:29:00,
2013-03-02 05:30:00,26.1,1.5,29.53,North,0,10.5,12.8,34,0.00,,,0.00,VWS V13.01,2013-03-02 11:30:00,
2013-03-02 05:31:00,26.1,1.5,29.53,NW,315,7.6,10.5,34,0.00,,,0.00,VWS V13.01,2013-03-02 11:31:00,
2013-03-02 05:32:00,26.1,1.5,29.56,NW,315,9.6,9.6,34,0.00,,,0.00,VWS V13.01,2013-03-02 11:32:00,
2013-03-02 05:33:00,26.1,1.5,29.56,NW,315,5.4,9.6,34,0.00,,,0.00,VWS V13.01,2013-03-02 11:33:00,
2013-03-02 05:34:00,26.1,1.5,29.56,NNW,338,4.9,8.1,34,0.00,,,0.00,VWS V13.01,2013-03-02 11:34:00,
2013-03-02 05:35:00,26.1,1.5,29.56,NW,315,6.3,12.3,34,0.00,,,0.00,VWS V13.01,2013-03-02 11:35:00,
2013-03-02 05:36:00,26.1,1.5,29.56,NW,315,7.6,8.1,34,0.00,,,0.00,VWS V13.01,2013-03-02 11:36:00,
2013-03-02 05:37:00,26.1,1.5,29.56,North,0,5.4,9.6,34,0.00,,,0.00,VWS V13.01,2013-03-02 11:37:00,
2013-03-02 05:38:00,26.1,1.5,29.56,NW,315,10.1,10.1,34,0.00,,,0.00,VWS V13.01,2013-03-02 11:38:00,
2013-03-02 05:39:00,26.1,1.5,29.56,NW,315,8.7,10.1,34,0.00,,,0.00,VWS V13.01,2013-03-02 11:39:00,
2013-03-02 05:40:00,26.1,1.5,29.56,NW,315,4.9,8.7,34,0.00,,,0.00,VWS V13.01,2013-03-02 11:40:00,
2013-03-02 05:41:00,26.1,1.5,29.56,North,0,5.4,5.8,34,0.00,,,0.00,VWS V13.01,2013-03-02 11:41:00,
2013-03-02 05:42:00,26.1,1.5,29.56,NW,315,5.4,8.3,34,0.00,,,0.00,VWS V13.01,2013-03-02 11:42:00,
2013-03-02 05:43:00,26.1,1.5,29.56,NW,315,5.4,8.3,34,0.00,,,0.00,VWS V13.01,2013-03-02 11:43:00,
2013-03-02 05:44:00,26.1,1.5,29.56,NNW,338,5.8,5.8,34,0.00,,,0.00,VWS V13.01,2013-03-02 11:44:00,
2013-03-02 05:45:00,26.1,1.5,29.56,NW,315,7.2,7.2,34,0.00,,,0.00,VWS V13.01,2013-03-02 11:45:00,
2013-03-02 05:46:00,26.1,1.5,29.56,NW,315,6.3,9.6,34,0.00,,,0.00,VWS V13.01,2013-03-02 11:46:00,
2013-03-02 05:47:00,26.1,1.5,29.56,NNW,338,4.9,6.7,34,0.00,,,0.00,VWS V13.01,2013-03-02 11:47:00,
2013-03-02 05:48:00,26.1,1.5,29.56,NNW,338,4.9,6.7,34,0.00,,,0.00,VWS V13.01,2013-03-02 11:48:00,
2013-03-02 05:49:00,26.1,1.5,29.56,NW,315,7.2,7.6,34,0.00,,,0.00,VWS V13.01,2013-03-02 11:49:00,
2013-03-02 05:50:00,26.1,1.5,29.56,West,270,3.6,7.6,34,0.00,,,0.00,VWS V13.01,2013-03-02 11:50:00,
2013-03-02 05:51:00,26.1,1.5,29.56,NW,315,11.9,11.9,34,0.00,,,0.00,VWS V13.01,2013-03-02 11:51:00,
2013-03-02 05:52:00,26.1,0.9,29.56,NW,315,7.6,11.0,33,0.00,,,0.00,VWS V13.01,2013-03-02 11:52:00,
2013-03-02 05:53:00,26.1,0.9,29.56,NW,315,7.6,11.0,33,0.00,,,0.00,VWS V13.01,2013-03-02 11:53:00,
2013-03-02 05:54:00,26.1,0.9,29.56,NW,315,6.3,11.0,33,0.00,,,0.00,VWS V13.01,2013-03-02 11:54:00,
2013-03-02 05:55:00,26.1,0.9,29.56,NW,315,8.1,12.8,33,0.00,,,0.00,VWS V13.01,2013-03-02 11:55:00,
2013-03-02 05:56:00,26.1,0.9,29.56,NW,315,8.1,9.2,33,0.00,,,0.00,VWS V13.01,2013-03-02 11:56:00,
2013-03-02 05:57:00,26.1,0.9,29.56,NW,315,8.3,10.5,33,0.00,,,0.00,VWS V13.01,2013-03-02 11:57:00,
2013-03-02 05:58:00,26.1,0.9,29.56,NW,315,6.3,10.5,33,0.00,,,0.00,VWS V13.01,2013-03-02 11:58:00,
2013-03-02 05:59:00,26.1,0.9,29.56,NW,315,8.1,8.1,33,0.00,,,0.00,VWS V13.01,2013-03-02 11:59:00,
2013-03-02 06:00:00,26.1,0.9,29.56,West,270,6.3,10.5,33,0.00,,,0.00,VWS V13.01,2013-03-02 12:00:00,
2013-03-02 06:01:00,26.1,0.9,29.56,NW,315,10.5,11.0,33,0.00,,,0.00,VWS V13.01,2013-03-02 12:01:00,
2013-03-02 06:02:00,26.1,0.9,29.56,NW,315,10.5,10.5,33,0.00,,,0.00,VWS V13.01,2013-03-02 12:02:00,
2013-03-02 06:03:00,26.1,0.9,29.56,NW,315,8.3,12.3,33,0.00,,,0.00,VWS V13.01,2013-03-02 12:03:00,
2013-03-02 06:04:00,26.1,0.9,29.56,NW,315,8.1,8.7,33,0.00,,,0.00,VWS V13.01,2013-03-02 12:04:00,
2013-03-02 06:05:00,26.1,0.9,29.56,NW,315,5.8,11.0,33,0.00,,,0.00,VWS V13.01,2013-03-02 12:05:00,
2013-03-02 06:06:00,26.1,0.9,29.56,West,270,4.0,8.1,33,0.00,,,0.00,VWS V13.01,2013-03-02 12:06:00,
2013-03-02 06:07:00,26.1,0.9,29.56,NNW,338,8.1,8.1,33,0.00,,,0.00,VWS V13.01,2013-03-02 12:07:00,
2013-03-02 06:08:00,26.1,0.9,29.56,NW,315,9.6,11.0,33,0.00,,,0.00,VWS V13.01,2013-03-02 12:08:00,
2013-03-02 06:09:00,26.1,0.9,29.56,NW,315,8.1,9.6,33,0.00,,,0.00,VWS V13.01,2013-03-02 12:09:00,
2013-03-02 06:10:00,26.1,0.9,29.56,WNW,292,5.4,11.0,33,0.00,,,0.00,VWS V13.01,2013-03-02 12:10:00,
2013-03-02 06:11:00,26.1,0.9,29.56,NW,315,8.3,8.3,33,0.00,,,0.00,VWS V13.01,2013-03-02 12:11:00,
2013-03-02 06:12:00,26.1,0.9,29.56,NW,315,5.8,11.0,33,0.00,,,0.00,VWS V13.01,2013-03-02 12:12:00,
2013-03-02 06:13:00,26.1,0.9,29.56,WNW,292,6.3,7.6,33,0.00,,,0.00,VWS V13.01,2013-03-02 12:13:00,
2013-03-02 06:14:00,26.1,0.9,29.56,NW,315,5.8,8.7,33,0.00,,,0.00,VWS V13.01,2013-03-02 12:14:00,
2013-03-02 06:15:00,26.1,0.9,29.56,NW,315,5.8,9.6,33,0.00,,,0.00,VWS V13.01,2013-03-02 12:15:00,
2013-03-02 06:16:00,26.1,0.9,29.56,West,270,8.1,8.3,33,0.00,,,0.00,VWS V13.01,2013-03-02 12:16:00,
2013-03-02 06:17:00,26.1,0.9,29.56,NW,315,8.3,8.7,33,0.00,,,0.00,VWS V13.01,2013-03-02 12:17:00,
2013-03-02 06:18:00,26.1,0.9,29.56,WNW,292,8.3,8.3,33,0.00,,,0.00,VWS V13.01,2013-03-02 12:18:00,
2013-03-02 06:19:00,26.1,0.9,29.56,WNW,292,5.8,8.3,33,0.00,,,0.00,VWS V13.01,2013-03-02 12:19:00,
2013-03-02 06:20:00,26.1,0.9,29.56,NW,315,7.6,7.6,33,0.00,,,0.00,VWS V13.01,2013-03-02 12:20:00,
2013-03-02 06:21:00,26.1,0.9,29.56,NW,315,10.5,10.5,33,0.00,,,0.00,VWS V13.01,2013-03-02 12:21:00,
2013-03-02 06:22:00,26.1,0.9,29.56,WNW,292,9.6,10.5,33,0.00,,,0.00,VWS V13.01,2013-03-02 12:22:00,
2013-03-02 06:23:00,26.1,0.9,29.56,WNW,292,5.8,9.6,33,0.00,,,0.00,VWS V13.01,2013-03-02 12:23:00,
2013-03-02 06:24:00,26.1,0.9,29.56,NNW,338,8.7,11.0,33,0.00,,,0.00,VWS V13.01,2013-03-02 12:24:00,
2013-03-02 06:25:00,26.1,0.9,29.56,WNW,292,4.0,10.5,33,0.00,,,0.00,VWS V13.01,2013-03-02 12:25:00,
2013-03-02 06:26:00,26.1,0.9,29.56,WNW,292,4.9,8.3,33,0.00,,,0.00,VWS V13.01,2013-03-02 12:26:00,
2013-03-02 06:27:00,26.1,0.9,29.56,NW,315,5.8,6.3,33,0.00,,,0.00,VWS V13.01,2013-03-02 12:27:00,
2013-03-02 06:28:00,26.1,0.9,29.56,West,270,8.1,8.7,33,0.00,,,0.00,VWS V13.01,2013-03-02 12:28:00,
2013-03-02 06:29:00,26.1,0.9,29.56,NW,315,5.8,8.3,33,0.00,,,0.00,VWS V13.01,2013-03-02 12:29:00,
2013-03-02 06:30:00,26.1,0.9,29.56,NW,315,10.1,10.5,33,0.00,,,0.00,VWS V13.01,2013-03-02 12:30:00,
2013-03-02 06:31:00,26.1,0.9,29.56,WNW,292,8.7,10.1,33,0.00,,,0.00,VWS V13.01,2013-03-02 12:31:00,
2013-03-02 06:32:00,26.1,0.9,29.56,NW,315,8.3,8.7,33,0.00,,,0.00,VWS V13.01,2013-03-02 12:32:00,
2013-03-02 06:33:00,26.1,0.9,29.56,NW,315,8.1,8.3,33,0.00,,,0.00,VWS V13.01,2013-03-02 12:33:00,
2013-03-02 06:34:00,26.1,0.9,29.56,NW,315,5.4,8.3,33,0.00,,,0.00,VWS V13.01,2013-03-02 12:34:00,
2013-03-02 06:35:00,26.1,0.9,29.56,West,270,6.3,8.1,33,0.00,,,0.00,VWS V13.01,2013-03-02 12:35:00,
2013-03-02 06:36:00,26.1,0.9,29.56,WNW,292,8.1,8.3,33,0.00,,,0.00,VWS V13.01,2013-03-02 12:36:00,
2013-03-02 06:37:00,26.1,0.9,29.56,NW,315,4.0,8.1,33,0.00,,,0.00,VWS V13.01,2013-03-02 12:37:00,
2013-03-02 06:38:00,26.1,0.9,29.56,WNW,292,8.1,10.5,33,0.00,,,0.00,VWS V13.01,2013-03-02 12:38:00,
2013-03-02 06:39:00,26.1,0.9,29.56,NW,315,4.9,8.1,33,0.00,,,0.00,VWS V13.01,2013-03-02 12:39:00,
2013-03-02 06:40:00,26.1,0.9,29.56,WNW,292,5.8,10.5,33,0.00,,,0.00,VWS V13.01,2013-03-02 12:40:00,
2013-03-02 06:41:00,26.1,0.9,29.56,NW,315,8.1,8.3,33,0.00,,,0.00,VWS V13.01,2013-03-02 12:41:00,
2013-03-02 06:42:00,26.1,0.9,29.56,NNW,338,8.7,8.7,33,0.00,,,0.00,VWS V13.01,2013-03-02 12:42:00,
2013-03-02 06:43:00,26.1,0.9,29.56,NW,315,7.2,10.1,33,0.00,,,0.00,VWS V13.01,2013-03-02 12:43:00,
2013-03-02 06:44:00,26.1,0.9,29.56,West,270,5.8,8.1,33,0.00,,,0.00,VWS V13.01,2013-03-02 12:44:00,
2013-03-02 06:45:00,26.1,0.9,29.56,West,270,5.4,8.1,33,0.00,,,0.00,VWS V13.01,2013-03-02 12:45:00,
2013-03-02 06:46:00,26.1,0.9,29.56,NW,315,6.3,7.6,33,0.00,,,0.00,VWS V13.01,2013-03-02 12:46:00,
2013-03-02 06:47:00,26.1,0.9,29.56,NW,315,5.8,10.1,33,0.00,,,0.00,VWS V13.01,2013-03-02 12:47:00,
2013-03-02 06:48:00,26.1,0.9,29.56,North,0,8.1,10.5,33,0.00,,,0.00,VWS V13.01,2013-03-02 12:48:00,
2013-03-02 06:49:00,26.1,0.9,29.56,West,270,5.8,8.3,33,0.00,,,0.00,VWS V13.01,2013-03-02 12:49:00,
2013-03-02 06:50:00,26.1,0.9,29.56,NW,315,8.1,8.1,33,0.00,,,0.00,VWS V13.01,2013-03-02 12:50:00,
2013-03-02 06:51:00,26.1,0.9,29.56,NW,315,8.3,8.3,33,0.00,,,0.00,VWS V13.01,2013-03-02 12:51:00,
2013-03-02 06:52:00,26.1,0.9,29.56,NW,315,4.5,10.1,33,0.00,,,0.00,VWS V13.01,2013-03-02 12:52:00,
2013-03-02 06:53:00,26.1,0.2,29.56,NW,315,12.8,12.8,32,0.00,,,0.00,VWS V13.01,2013-03-02 12:53:00,
2013-03-02 06:54:00,26.1,0.2,29.56,NW,315,7.6,12.8,32,0.00,,,0.00,VWS V13.01,2013-03-02 12:54:00,
2013-03-02 06:55:00,26.1,0.2,29.56,NW,315,9.6,10.1,32,0.00,,,0.00,VWS V13.01,2013-03-02 12:55:00,
2013-03-02 06:56:00,26.1,0.2,29.56,West,270,8.7,9.6,32,0.00,,,0.00,VWS V13.01,2013-03-02 12:56:00,
2013-03-02 06:57:00,26.1,0.2,29.56,West,270,8.7,11.0,32,0.00,,,0.00,VWS V13.01,2013-03-02 12:57:00,
2013-03-02 06:58:00,26.1,0.2,29.56,NW,315,8.7,8.7,32,0.00,,,0.00,VWS V13.01,2013-03-02 12:58:00,
2013-03-02 06:59:00,26.1,0.2,29.56,NW,315,6.3,13.2,32,0.00,,,0.00,VWS V13.01,2013-03-02 12:59:00,
2013-03-02 07:00:00,26.1,0.2,29.56,NW,315,8.7,8.7,32,0.00,,,0.00,VWS V13.01,2013-03-02 13:00:00,
2013-03-02 07:01:00,26.2,1.1,29.56,NNW,338,5.4,8.7,33,0.00,,,0.00,VWS V13.01,2013-03-02 13:01:00,
2013-03-02 07:02:00,26.2,1.1,29.56,NW,315,8.3,8.7,33,0.00,,,0.00,VWS V13.01,2013-03-02 13:02:00,
2013-03-02 07:03:00,26.2,1.1,29.56,West,270,9.2,9.2,33,0.00,,,0.00,VWS V13.01,2013-03-02 13:03:00,
2013-03-02 07:04:00,26.2,1.1,29.56,NW,315,7.2,10.5,33,0.00,,,0.00,VWS V13.01,2013-03-02 13:04:00,
2013-03-02 07:05:00,26.1,0.9,29.56,NW,315,9.6,9.6,33,0.00,,,0.00,VWS V13.01,2013-03-02 13:05:00,
2013-03-02 07:06:00,26.1,0.9,29.56,WNW,292,8.3,9.6,33,0.00,,,0.00,VWS V13.01,2013-03-02 13:06:00,
2013-03-02 07:07:00,26.1,0.9,29.56,West,270,7.6,12.8,33,0.00,,,0.00,VWS V13.01,2013-03-02 13:07:00,
2013-03-02 07:08:00,26.1,0.9,29.56,NW,315,5.4,12.8,33,0.00,,,0.00,VWS V13.01,2013-03-02 13:08:00,
2013-03-02 07:09:00,26.1,0.9,29.56,WNW,292,7.6,7.6,33,0.00,,,0.00,VWS V13.01,2013-03-02 13:09:00,
2013-03-02 07:10:00,26.1,0.9,29.56,NNW,338,5.4,13.2,33,0.00,,,0.00,VWS V13.01,2013-03-02 13:10:00,
2013-03-02 07:11:00,26.1,0.9,29.56,NW,315,11.0,11.0,33,0.00,,,0.00,VWS V13.01,2013-03-02 13:11:00,
2013-03-02 07:12:00,26.1,0.9,29.56,North,0,7.2,11.0,33,0.00,,,0.00,VWS V13.01,2013-03-02 13:12:00,
2013-03-02 07:13:00,26.1,0.9,29.56,WNW,292,4.0,11.0,33,0.00,,,0.00,VWS V13.01,2013-03-02 13:13:00,
2013-03-02 07:14:00,26.2,0.4,29.56,NW,315,8.3,11.4,32,0.00,,,0.00,VWS V13.01,2013-03-02 13:14:00,
2013-03-02 07:15:00,26.2,0.4,29.56,NW,315,8.7,10.5,32,0.00,,,0.00,VWS V13.01,2013-03-02 13:15:00,
2013-03-02 07:16:00,26.1,0.9,29.59,NW,315,6.3,11.4,33,0.00,,,0.00,VWS V13.01,2013-03-02 13:16:00,
2013-03-02 07:17:00,26.2,1.1,29.59,West,270,7.6,8.1,33,0.00,,,0.00,VWS V13.01,2013-03-02 13:17:00,
2013-03-02 07:18:00,26.2,1.1,29.59,NW,315,10.5,10.5,33,0.00,,,0.00,VWS V13.01,2013-03-02 13:18:00,
2013-03-02 07:19:00,26.2,1.1,29.59,NW,315,5.8,10.5,33,0.00,,,0.00,VWS V13.01,2013-03-02 13:19:00,
2013-03-02 07:20:00,26.2,1.1,29.59,NW,315,7.6,12.8,33,0.00,,,0.00,VWS V13.01,2013-03-02 13:20:00,
2013-03-02 07:21:00,26.2,0.4,29.59,NNW,338,8.7,10.5,32,0.00,,,0.00,VWS V13.01,2013-03-02 13:21:00,
2013-03-02 07:22:00,26.1,0.2,29.59,NW,315,9.2,12.3,32,0.00,,,0.00,VWS V13.01,2013-03-02 13:22:00,
2013-03-02 07:23:00,26.2,0.4,29.59,NW,315,7.6,9.2,32,0.00,,,0.00,VWS V13.01,2013-03-02 13:23:00,
2013-03-02 07:24:00,26.1,0.2,29.59,NW,315,5.4,8.7,32,0.00,,,0.00,VWS V13.01,2013-03-02 13:24:00,
2013-03-02 07:25:00,26.2,0.4,29.59,West,270,8.3,8.3,32,0.00,,,0.00,VWS V13.01,2013-03-02 13:25:00,
2013-03-02 07:26:00,26.2,0.4,29.59,NW,315,9.2,11.0,32,0.00,,,0.00,VWS V13.01,2013-03-02 13:26:00,
2013-03-02 07:27:00,26.2,0.4,29.59,NW,315,8.1,10.1,32,0.00,,,0.00,VWS V13.01,2013-03-02 13:27:00,
2013-03-02 07:28:00,26.1,0.2,29.59,NW,315,7.2,10.1,32,0.00,,,0.00,VWS V13.01,2013-03-02 13:28:00,
2013-03-02 07:29:00,26.1,0.2,29.59,NW,315,8.7,8.7,32,0.00,,,0.00,VWS V13.01,2013-03-02 13:29:00,
2013-03-02 07:30:00,26.2,0.4,29.59,NW,315,8.1,14.5,32,0.00,,,0.00,VWS V13.01,2013-03-02 13:30:00,
2013-03-02 07:31:00,26.2,0.4,29.59,NW,315,9.6,12.8,32,0.00,,,0.00,VWS V13.01,2013-03-02 13:31:00,
2013-03-02 07:32:00,26.2,1.1,29.59,NW,315,12.8,12.8,33,0.00,,,0.00,VWS V13.01,2013-03-02 13:32:00,
2013-03-02 07:33:00,26.2,1.1,29.59,WNW,292,8.7,12.8,33,0.00,,,0.00,VWS V13.01,2013-03-02 13:33:00,
2013-03-02 07:34:00,26.2,1.1,29.59,West,270,5.4,8.7,33,0.00,,,0.00,VWS V13.01,2013-03-02 13:34:00,
2013-03-02 07:35:00,26.2,1.1,29.59,NW,315,7.6,8.1,33,0.00,,,0.00,VWS V13.01,2013-03-02 13:35:00,
2013-03-02 07:36:00,26.2,1.1,29.59,NW,315,4.9,8.7,33,0.00,,,0.00,VWS V13.01,2013-03-02 13:36:00,
2013-03-02 07:37:00,26.2,1.1,29.59,NW,315,11.0,11.0,33,0.00,,,0.00,VWS V13.01,2013-03-02 13:37:00,
2013-03-02 07:38:00,26.2,1.1,29.59,NW,315,6.3,11.0,33,0.00,,,0.00,VWS V13.01,2013-03-02 13:38:00,
2013-03-02 07:39:00,26.2,1.1,29.59,West,270,4.0,6.3,33,0.00,,,0.00,VWS V13.01,2013-03-02 13:39:00,
2013-03-02 07:40:00,26.2,1.1,29.59,NW,315,8.3,8.3,33,0.00,,,0.00,VWS V13.01,2013-03-02 13:40:00,
2013-03-02 07:41:00,26.2,1.1,29.59,WNW,292,6.3,10.1,33,0.00,,,0.00,VWS V13.01,2013-03-02 13:41:00,
2013-03-02 07:42:00,26.2,1.1,29.59,NW,315,12.8,13.6,33,0.00,,,0.00,VWS V13.01,2013-03-02 13:42:00,
2013-03-02 07:43:00,26.1,0.9,29.59,West,270,9.6,11.0,33,0.00,,,0.00,VWS V13.01,2013-03-02 13:43:00,
2013-03-02 07:44:00,26.1,0.9,29.59,NW,315,8.3,11.0,33,0.00,,,0.00,VWS V13.01,2013-03-02 13:44:00,
2013-03-02 07:45:00,26.1,0.9,29.59,West,270,9.6,13.2,33,0.00,,,0.00,VWS V13.01,2013-03-02 13:45:00,
2013-03-02 07:46:00,26.1,1.5,29.59,NW,315,7.6,11.0,34,0.00,,,0.00,VWS V13.01,2013-03-02 13:46:00,
2013-03-02 07:47:00,26.1,1.5,29.59,West,270,11.0,11.4,34,0.00,,,0.00,VWS V13.01,2013-03-02 13:47:00,
2013-03-02 07:48:00,26.1,1.5,29.59,NW,315,8.7,13.2,34,0.00,,,0.00,VWS V13.01,2013-03-02 13:48:00,
2013-03-02 07:49:00,26.1,1.5,29.59,NW,315,10.5,13.2,34,0.00,,,0.00,VWS V13.01,2013-03-02 13:49:00,
2013-03-02 07:50:00,26.1,1.5,29.59,WNW,292,7.6,10.5,34,0.00,,,0.00,VWS V13.01,2013-03-02 13:50:00,
2013-03-02 07:51:00,26.1,1.5,29.59,WNW,292,12.3,12.3,34,0.00,,,0.00,VWS V13.01,2013-03-02 13:51:00,
2013-03-02 07:52:00,26.1,1.5,29.59,NW,315,12.8,14.1,34,0.00,,,0.00,VWS V13.01,2013-03-02 13:52:00,
2013-03-02 07:53:00,26.1,1.5,29.59,WNW,292,10.5,10.5,34,0.00,,,0.00,VWS V13.01,2013-03-02 13:53:00,
2013-03-02 07:54:00,26.1,1.5,29.59,WNW,292,11.0,12.3,34,0.00,,,0.00,VWS V13.01,2013-03-02 13:54:00,
2013-03-02 07:55:00,26.1,2.2,29.59,North,0,11.4,11.4,35,0.00,,,0.00,VWS V13.01,2013-03-02 13:55:00,
2013-03-02 07:56:00,26.1,2.2,29.59,NW,315,9.6,15.0,35,0.00,,,0.00,VWS V13.01,2013-03-02 13:56:00,
2013-03-02 07:57:00,26.1,2.2,29.59,West,270,6.3,9.6,35,0.00,,,0.00,VWS V13.01,2013-03-02 13:57:00,
2013-03-02 07:58:00,26.1,2.2,29.59,NW,315,8.1,11.9,35,0.00,,,0.00,VWS V13.01,2013-03-02 13:58:00,
2013-03-02 07:59:00,26.1,2.2,29.59,NNW,338,8.3,11.9,35,0.00,,,0.00,VWS V13.01,2013-03-02 13:59:00,
2013-03-02 08:00:00,26.1,2.2,29.59,NW,315,3.6,9.2,35,0.00,,,0.00,VWS V13.01,2013-03-02 14:00:00,
2013-03-02 08:01:00,26.1,2.8,29.59,West,270,8.7,9.6,36,0.00,,,0.00,VWS V13.01,2013-03-02 14:01:00,
2013-03-02 08:02:00,26.2,2.9,29.59,West,270,11.0,11.0,36,0.00,,,0.00,VWS V13.01,2013-03-02 14:02:00,
2013-03-02 08:03:00,26.2,2.9,29.59,WNW,292,10.1,10.1,36,0.00,,,0.00,VWS V13.01,2013-03-02 14:03:00,
2013-03-02 08:04:00,26.1,2.8,29.59,WNW,292,10.5,12.3,36,0.00,,,0.00,VWS V13.01,2013-03-02 14:04:00,
2013-03-02 08:05:00,26.2,2.9,29.59,NW,315,8.1,10.5,36,0.00,,,0.00,VWS V13.01,2013-03-02 14:05:00,
2013-03-02 08:06:00,26.2,2.9,29.59,NW,315,8.7,10.5,36,0.00,,,0.00,VWS V13.01,2013-03-02 14:06:00,
2013-03-02 08:07:00,26.2,2.9,29.59,NW,315,13.6,16.3,36,0.00,,,0.00,VWS V13.01,2013-03-02 14:07:00,
2013-03-02 08:08:00,26.2,2.3,29.59,NNW,338,10.1,10.5,35,0.00,,,0.00,VWS V13.01,2013-03-02 14:08:00,
2013-03-02 08:09:00,26.2,2.9,29.59,NW,315,11.9,11.9,36,0.00,,,0.00,VWS V13.01,2013-03-02 14:09:00,
2013-03-02 08:10:00,26.2,2.3,29.59,West,270,14.5,14.5,35,0.00,,,0.00,VWS V13.01,2013-03-02 14:10:00,
2013-03-02 08:11:00,26.2,2.3,29.59,NW,315,5.4,14.5,35,0.00,,,0.00,VWS V13.01,2013-03-02 14:11:00,
2013-03-02 08:12:00,26.2,2.3,29.59,NW,315,8.3,13.2,35,0.00,,,0.00,VWS V13.01,2013-03-02 14:12:00,
2013-03-02 08:13:00,26.4,3.1,29.59,NW,315,8.3,8.3,36,0.00,,,0.00,VWS V13.01,2013-03-02 14:13:00,
2013-03-02 08:14:00,26.4,3.1,29.59,NW,315,7.2,8.3,36,0.00,,,0.00,VWS V13.01,2013-03-02 14:14:00,
2013-03-02 08:15:00,26.4,3.1,29.59,NW,315,2.7,7.2,36,0.00,,,0.00,VWS V13.01,2013-03-02 14:15:00,
2013-03-02 08:16:00,26.6,3.3,29.59,West,270,9.6,10.5,36,0.00,,,0.00,VWS V13.01,2013-03-02 14:16:00,
2013-03-02 08:17:00,26.6,3.3,29.59,WNW,292,5.4,9.6,36,0.00,,,0.00,VWS V13.01,2013-03-02 14:17:00,
2013-03-02 08:18:00,26.6,3.3,29.59,WNW,292,11.0,12.3,36,0.00,,,0.00,VWS V13.01,2013-03-02 14:18:00,
2013-03-02 08:19:00,26.4,3.1,29.59,NW,315,7.6,12.3,36,0.00,,,0.00,VWS V13.01,2013-03-02 14:19:00,
2013-03-02 08:20:00,26.6,3.3,29.59,NW,315,8.7,9.6,36,0.00,,,0.00,VWS V13.01,2013-03-02 14:20:00,
2013-03-02 08:21:00,26.6,3.3,29.59,NW,315,8.3,15.0,36,0.00,,,0.00,VWS V13.01,2013-03-02 14:21:00,
2013-03-02 08:22:00,26.6,3.3,29.59,NW,315,9.6,15.4,36,0.00,,,0.00,VWS V13.01,2013-03-02 14:22:00,
2013-03-02 08:23:00,26.6,2.7,29.59,NW,315,5.4,9.6,35,0.00,,,0.00,VWS V13.01,2013-03-02 14:23:00,
2013-03-02 08:24:00,26.6,2.7,29.59,NW,315,12.8,12.8,35,0.00,,,0.00,VWS V13.01,2013-03-02 14:24:00,
2013-03-02 08:25:00,26.8,2.2,29.59,West,270,6.3,12.8,34,0.00,,,0.00,VWS V13.01,2013-03-02 14:25:00,
2013-03-02 08:26:00,26.8,2.2,29.59,NW,315,12.8,12.8,34,0.00,,,0.00,VWS V13.01,2013-03-02 14:26:00,
2013-03-02 08:27:00,26.8,2.2,29.59,NW,315,13.2,13.2,34,0.00,,,0.00,VWS V13.01,2013-03-02 14:27:00,
2013-03-02 08:28:00,26.8,1.5,29.59,NW,315,8.1,8.1,33,0.00,,,0.00,VWS V13.01,2013-03-02 14:28:00,
2013-03-02 08:29:00,26.8,1.5,29.59,NW,315,6.3,8.1,33,0.00,,,0.00,VWS V13.01,2013-03-02 14:29:00,
2013-03-02 08:30:00,27.0,1.7,29.59,West,270,12.3,13.2,33,0.00,,,0.00,VWS V13.01,2013-03-02 14:30:00,
2013-03-02 08:31:00,27.0,1.7,29.59,NW,315,13.6,13.6,33,0.00,,,0.00,VWS V13.01,2013-03-02 14:31:00,
2013-03-02 08:32:00,27.0,1.7,29.59,NW,315,11.4,13.6,33,0.00,,,0.00,VWS V13.01,2013-03-02 14:32:00,
2013-03-02 08:33:00,27.0,1.7,29.59,NW,315,7.6,10.1,33,0.00,,,0.00,VWS V13.01,2013-03-02 14:33:00,
2013-03-02 08:34:00,27.0,1.7,29.59,NW,315,7.2,10.1,33,0.00,,,0.00,VWS V13.01,2013-03-02 14:34:00,
2013-03-02 08:35:00,27.1,1.9,29.59,NW,315,15.0,15.0,33,0.00,,,0.00,VWS V13.01,2013-03-02 14:35:00,
2013-03-02 08:36:00,27.0,1.0,29.59,NW,315,12.3,15.0,32,0.00,,,0.00,VWS V13.01,2013-03-02 14:36:00,
2013-03-02 08:37:00,27.0,1.0,29.59,West,270,7.2,12.3,32,0.00,,,0.00,VWS V13.01,2013-03-02 14:37:00,
2013-03-02 08:38:00,27.1,1.2,29.59,West,270,6.3,12.3,32,0.00,,,0.00,VWS V13.01,2013-03-02 14:38:00,
2013-03-02 08:39:00,27.1,1.2,29.59,NW,315,11.0,12.3,32,0.00,,,0.00,VWS V13.01,2013-03-02 14:39:00,
2013-03-02 08:40:00,27.1,1.2,29.59,NNW,338,8.7,11.0,32,0.00,,,0.00,VWS V13.01,2013-03-02 14:40:00,
2013-03-02 08:41:00,27.0,1.0,29.59,WNW,292,9.6,14.1,32,0.00,,,0.00,VWS V13.01,2013-03-02 14:41:00,
2013-03-02 08:42:00,27.1,1.2,29.59,NW,315,12.8,12.8,32,0.00,,,0.00,VWS V13.01,2013-03-02 14:42:00,
2013-03-02 08:43:00,27.1,1.2,29.59,West,270,5.4,12.8,32,0.00,,,0.00,VWS V13.01,2013-03-02 14:43:00,
2013-03-02 08:44:00,27.1,1.2,29.59,NNW,338,15.4,15.4,32,0.00,,,0.00,VWS V13.01,2013-03-02 14:44:00,
2013-03-02 08:45:00,27.1,1.2,29.59,WNW,292,10.1,15.4,32,0.00,,,0.00,VWS V13.01,2013-03-02 14:45:00,
2013-03-02 08:46:00,27.1,1.2,29.59,NW,315,10.1,10.1,32,0.00,,,0.00,VWS V13.01,2013-03-02 14:46:00,
2013-03-02 08:47:00,27.1,1.2,29.59,NW,315,8.3,14.1,32,0.00,,,0.00,VWS V13.01,2013-03-02 14:47:00,
2013-03-02 08:48:00,27.1,1.2,29.59,NW,315,4.5,10.5,32,0.00,,,0.00,VWS V13.01,2013-03-02 14:48:00,
2013-03-02 08:49:00,27.1,1.2,29.59,NW,315,4.9,10.5,32,0.00,,,0.00,VWS V13.01,2013-03-02 14:49:00,
2013-03-02 08:50:00,27.3,1.4,29.59,NW,315,8.3,12.8,32,0.00,,,0.00,VWS V13.01,2013-03-02 14:50:00,
2013-03-02 08:51:00,27.3,1.4,29.59,NW,315,8.3,10.1,32,0.00,,,0.00,VWS V13.01,2013-03-02 14:51:00,
2013-03-02 08:52:00,27.3,1.4,29.59,West,270,8.1,11.0,32,0.00,,,0.00,VWS V13.01,2013-03-02 14:52:00,
2013-03-02 08:53:00,27.3,0.7,29.59,WNW,292,15.4,15.4,31,0.00,,,0.00,VWS V13.01,2013-03-02 14:53:00,
2013-03-02 08:54:00,27.3,0.7,29.59,NW,315,13.2,15.4,31,0.00,,,0.00,VWS V13.01,2013-03-02 14:54:00,
2013-03-02 08:55:00,27.3,0.7,29.59,NNW,338,7.2,13.2,31,0.00,,,0.00,VWS V13.01,2013-03-02 14:55:00,
2013-03-02 08:56:00,27.5,0.8,29.59,NW,315,7.2,11.9,31,0.00,,,0.00,VWS V13.01,2013-03-02 14:56:00,
2013-03-02 08:57:00,27.9,1.2,29.59,WNW,292,4.0,10.1,31,0.00,,,0.00,VWS V13.01,2013-03-02 14:57:00,
2013-03-02 08:58:00,27.9,1.2,29.59,NW,315,7.2,11.0,31,0.00,,,0.00,VWS V13.01,2013-03-02 14:58:00,
2013-03-02 08:59:00,27.9,1.2,29.59,NW,315,8.7,8.7,31,0.00,,,0.00,VWS V13.01,2013-03-02 14:59:00,
2013-03-02 09:00:00,28.0,1.3,29.59,NNW,338,7.6,13.2,31,0.00,,,0.00,VWS V13.01,2013-03-02 15:00:00,
2013-03-02 09:01:00,28.0,1.3,29.59,North,0,6.3,11.0,31,0.00,,,0.00,VWS V13.01,2013-03-02 15:01:00,
2013-03-02 09:02:00,28.4,1.6,29.59,NW,315,5.4,7.6,31,0.00,,,0.00,VWS V13.01,2013-03-02 15:02:00,
2013-03-02 09:03:00,28.4,1.6,29.59,NW,315,6.7,12.3,31,0.00,,,0.00,VWS V13.01,2013-03-02 15:03:00,
2013-03-02 09:04:00,28.2,1.5,29.59,NW,315,8.1,10.1,31,0.00,,,0.00,VWS V13.01,2013-03-02 15:04:00,
2013-03-02 09:05:00,28.4,1.6,29.59,NW,315,8.3,8.3,31,0.00,,,0.00,VWS V13.01,2013-03-02 15:05:00,
2013-03-02 09:06:00,28.6,1.1,29.59,NW,315,9.6,11.4,30,0.00,,,0.00,VWS V13.01,2013-03-02 15:06:00,
2013-03-02 09:07:00,28.4,1.6,29.59,North,0,8.3,10.1,31,0.00,,,0.00,VWS V13.01,2013-03-02 15:07:00,
2013-03-02 09:08:00,28.4,1.6,29.59,NNW,338,8.3,10.1,31,0.00,,,0.00,VWS V13.01,2013-03-02 15:08:00,
2013-03-02 09:09:00,28.2,-0.7,29.59,North,0,7.2,10.1,28,0.00,,,0.00,VWS V13.01,2013-03-02 15:09:00,
2013-03-02 09:10:00,28.4,-0.5,29.59,NW,315,9.6,9.6,28,0.00,,,0.00,VWS V13.01,2013-03-02 15:10:00,
2013-03-02 09:11:00,28.2,-0.7,29.59,NW,315,10.1,12.8,28,0.00,,,0.00,VWS V13.01,2013-03-02 15:11:00,
2013-03-02 09:12:00,28.2,1.5,29.59,NW,315,12.3,12.8,31,0.00,,,0.00,VWS V13.01,2013-03-02 15:12:00,
2013-03-02 09:13:00,28.2,1.5,29.59,NW,315,4.9,12.3,31,0.00,,,0.00,VWS V13.01,2013-03-02 15:13:00,
2013-03-02 09:14:00,28.2,1.5,29.59,NNW,338,10.5,10.5,31,0.00,,,0.00,VWS V13.01,2013-03-02 15:14:00,
2013-03-02 09:15:00,28.2,1.5,29.59,NW,315,12.8,12.8,31,0.00,,,0.00,VWS V13.01,2013-03-02 15:15:00,
2013-03-02 09:16:00,28.2,-0.7,29.59,NW,315,10.1,12.8,28,0.00,,,0.00,VWS V13.01,2013-03-02 15:16:00,
2013-03-02 09:17:00,28.0,-0.9,29.59,NNW,338,5.4,10.1,28,0.00,,,0.00,VWS V13.01,2013-03-02 15:17:00,
2013-03-02 09:18:00,28.2,-0.7,29.59,NW,315,13.2,13.2,28,0.00,,,0.00,VWS V13.01,2013-03-02 15:18:00,
2013-03-02 09:19:00,28.0,-0.9,29.59,NW,315,8.7,13.2,28,0.00,,,0.00,VWS V13.01,2013-03-02 15:19:00,
2013-03-02 09:20:00,28.0,-0.9,29.59,NNW,338,10.5,10.5,28,0.00,,,0.00,VWS V13.01,2013-03-02 15:20:00,
2013-03-02 09:21:00,28.2,-0.7,29.59,NNW,338,10.1,12.3,28,0.00,,,0.00,VWS V13.01,2013-03-02 15:21:00,
2013-03-02 09:22:00,28.0,-0.9,29.59,NW,315,9.6,14.1,28,0.00,,,0.00,VWS V13.01,2013-03-02 15:22:00,
2013-03-02 09:23:00,28.0,-0.9,29.59,NW,315,12.8,13.2,28,0.00,,,0.00,VWS V13.01,2013-03-02 15:23:00,
2013-03-02 09:24:00,28.2,-0.7,29.59,West,270,9.6,13.2,28,0.00,,,0.00,VWS V13.01,2013-03-02 15:24:00,
2013-03-02 09:25:00,28.2,-0.7,29.59,NW,315,8.1,9.6,28,0.00,,,0.00,VWS V13.01,2013-03-02 15:25:00,
2013-03-02 09:26:00,28.4,-0.5,29.59,NW,315,6.3,12.3,28,0.00,,,0.00,VWS V13.01,2013-03-02 15:26:00,
2013-03-02 09:27:00,28.6,-2.8,29.59,NNW,338,8.7,10.5,25,0.00,,,0.00,VWS V13.01,2013-03-02 15:27:00,
2013-03-02 09:28:00,28.6,-2.8,29.59,NNW,338,7.6,8.7,25,0.00,,,0.00,VWS V13.01,2013-03-02 15:28:00,
2013-03-02 09:29:00,28.6,-2.8,29.59,NNW,338,4.0,11.0,25,0.00,,,0.00,VWS V13.01,2013-03-02 15:29:00,
2013-03-02 09:30:00,28.6,-2.8,29.59,NW,315,8.3,10.1,25,0.00,,,0.00,VWS V13.01,2013-03-02 15:30:00,
2013-03-02 09:31:00,28.6,-2.8,29.59,NNW,338,9.6,11.9,25,0.00,,,0.00,VWS V13.01,2013-03-02 15:31:00,
2013-03-02 09:32:00,28.6,-4.5,29.59,NNW,338,10.1,10.1,23,0.00,,,0.00,VWS V13.01,2013-03-02 15:32:00,
2013-03-02 09:33:00,28.6,-2.8,29.59,NW,315,5.8,10.1,25,0.00,,,0.00,VWS V13.01,2013-03-02 15:33:00,
2013-03-02 09:34:00,28.6,-4.5,29.59,NW,315,10.1,13.2,23,0.00,,,0.00,VWS V13.01,2013-03-02 15:34:00,
2013-03-02 09:35:00,28.6,-4.5,29.59,SW,225,11.0,12.3,23,0.00,,,0.00,VWS V13.01,2013-03-02 15:35:00,
2013-03-02 09:36:00,28.6,-4.5,29.59,NW,315,13.2,13.2,23,0.00,,,0.00,VWS V13.01,2013-03-02 15:36:00,
2013-03-02 09:37:00,28.6,-4.5,29.59,NW,315,10.5,16.3,23,0.00,,,0.00,VWS V13.01,2013-03-02 15:37:00,
2013-03-02 09:38:00,28.6,-4.5,29.59,West,270,8.1,16.3,23,0.00,,,0.00,VWS V13.01,2013-03-02 15:38:00,
2013-03-02 09:39:00,28.6,-4.5,29.59,NNW,338,7.6,8.7,23,0.00,,,0.00,VWS V13.01,2013-03-02 15:39:00,
2013-03-02 09:40:00,28.9,-4.2,29.59,NNW,338,9.2,11.9,23,0.00,,,0.00,VWS V13.01,2013-03-02 15:40:00,
2013-03-02 09:41:00,28.9,-4.2,29.59,WNW,292,12.8,14.5,23,0.00,,,0.00,VWS V13.01,2013-03-02 15:41:00,
2013-03-02 09:42:00,28.9,-4.2,29.59,NW,315,11.9,15.0,23,0.00,,,0.00,VWS V13.01,2013-03-02 15:42:00,
2013-03-02 09:43:00,28.8,-4.3,29.59,North,0,10.1,11.9,23,0.00,,,0.00,VWS V13.01,2013-03-02 15:43:00,
2013-03-02 09:44:00,28.9,-4.2,29.59,NNW,338,5.8,10.1,23,0.00,,,0.00,VWS V13.01,2013-03-02 15:44:00,
2013-03-02 09:45:00,28.9,-4.2,29.59,NNW,338,7.6,10.5,23,0.00,,,0.00,VWS V13.01,2013-03-02 15:45:00,
2013-03-02 09:46:00,29.1,-4.1,29.59,West,270,7.6,11.0,23,0.00,,,0.00,VWS V13.01,2013-03-02 15:46:00,
2013-03-02 09:47:00,29.1,-4.1,29.59,NW,315,7.2,11.0,23,0.00,,,0.00,VWS V13.01,2013-03-02 15:47:00,
2013-03-02 09:48:00,29.1,-4.1,29.59,NW,315,7.6,11.4,23,0.00,,,0.00,VWS V13.01,2013-03-02 15:48:00,
2013-03-02 09:49:00,29.5,-3.7,29.59,West,270,11.0,11.0,23,0.00,,,0.00,VWS V13.01,2013-03-02 15:49:00,
2013-03-02 09:50:00,29.3,-3.9,29.59,West,270,5.4,11.0,23,0.00,,,0.00,VWS V13.01,2013-03-02 15:50:00,
2013-03-02 09:51:00,29.5,-3.7,29.59,NNW,338,8.7,8.7,23,0.00,,,0.00,VWS V13.01,2013-03-02 15:51:00,
2013-03-02 09:52:00,29.5,-3.7,29.59,WNW,292,8.1,10.5,23,0.00,,,0.00,VWS V13.01,2013-03-02 15:52:00,
2013-03-02 09:53:00,29.3,-3.9,29.59,WNW,292,8.1,11.0,23,0.00,,,0.00,VWS V13.01,2013-03-02 15:53:00,
2013-03-02 09:54:00,29.3,-3.9,29.59,NW,315,9.6,12.3,23,0.00,,,0.00,VWS V13.01,2013-03-02 15:54:00,
2013-03-02 09:55:00,29.1,-4.1,29.59,NW,315,11.9,15.0,23,0.00,,,0.00,VWS V13.01,2013-03-02 15:55:00,
2013-03-02 09:56:00,29.1,-4.1,29.59,NNW,338,13.2,13.2,23,0.00,,,0.00,VWS V13.01,2013-03-02 15:56:00,
2013-03-02 09:57:00,29.1,-4.1,29.59,West,270,8.3,13.2,23,0.00,,,0.00,VWS V13.01,2013-03-02 15:57:00,
2013-03-02 09:58:00,29.1,-4.1,29.59,WNW,292,7.6,8.3,23,0.00,,,0.00,VWS V13.01,2013-03-02 15:58:00,
2013-03-02 09:59:00,29.1,-4.1,29.59,West,270,10.5,16.3,23,0.00,,,0.00,VWS V13.01,2013-03-02 15:59:00,
2013-03-02 10:00:00,29.1,-4.1,29.59,WNW,292,5.8,10.5,23,0.00,,,0.00,VWS V13.01,2013-03-02 16:00:00,
2013-03-02 10:01:00,29.3,-3.9,29.59,NW,315,8.1,10.1,23,0.00,,,0.00,VWS V13.01,2013-03-02 16:01:00,
2013-03-02 10:02:00,29.5,-3.7,29.59,NW,315,13.2,13.2,23,0.00,,,0.00,VWS V13.01,2013-03-02 16:02:00,
2013-03-02 10:03:00,29.3,-3.9,29.59,WNW,292,7.2,13.2,23,0.00,,,0.00,VWS V13.01,2013-03-02 16:03:00,
2013-03-02 10:04:00,29.5,-3.7,29.59,West,270,8.1,8.3,23,0.00,,,0.00,VWS V13.01,2013-03-02 16:04:00,
2013-03-02 10:05:00,29.5,-3.7,29.59,NW,315,10.5,10.5,23,0.00,,,0.00,VWS V13.01,2013-03-02 16:05:00,
2013-03-02 10:06:00,29.5,-3.7,29.59,NNW,338,14.5,15.0,23,0.00,,,0.00,VWS V13.01,2013-03-02 16:06:00,
2013-03-02 10:07:00,29.3,-3.9,29.59,West,270,10.1,14.5,23,0.00,,,0.00,VWS V13.01,2013-03-02 16:07:00,
2013-03-02 10:08:00,29.5,-3.7,29.59,NW,315,8.3,10.1,23,0.00,,,0.00,VWS V13.01,2013-03-02 16:08:00,
2013-03-02 10:09:00,29.5,-3.7,29.59,WNW,292,5.8,11.0,23,0.00,,,0.00,VWS V13.01,2013-03-02 16:09:00,
2013-03-02 10:10:00,29.5,-3.7,29.59,NNW,338,11.4,13.2,23,0.00,,,0.00,VWS V13.01,2013-03-02 16:10:00,
2013-03-02 10:11:00,29.5,-3.7,29.59,WNW,292,8.3,13.2,23,0.00,,,0.00,VWS V13.01,2013-03-02 16:11:00,
2013-03-02 10:12:00,29.5,-3.7,29.59,WNW,292,15.4,15.4,23,0.00,,,0.00,VWS V13.01,2013-03-02 16:12:00,
2013-03-02 10:13:00,29.5,-3.7,29.59,West,270,5.8,15.4,23,0.00,,,0.00,VWS V13.01,2013-03-02 16:13:00,
2013-03-02 10:14:00,29.5,-3.7,29.59,West,270,4.0,15.0,23,0.00,,,0.00,VWS V13.01,2013-03-02 16:14:00,
2013-03-02 10:15:00,29.5,-3.7,29.59,NW,315,10.5,13.2,23,0.00,,,0.00,VWS V13.01,2013-03-02 16:15:00,
2013-03-02 10:16:00,29.5,-3.7,29.59,NW,315,7.2,11.0,23,0.00,,,0.00,VWS V13.01,2013-03-02 16:16:00,
2013-03-02 10:17:00,29.5,-3.7,29.59,NW,315,11.0,11.0,23,0.00,,,0.00,VWS V13.01,2013-03-02 16:17:00,
2013-03-02 10:18:00,29.5,-3.7,29.59,NW,315,11.9,11.9,23,0.00,,,0.00,VWS V13.01,2013-03-02 16:18:00,
2013-03-02 10:19:00,29.5,-3.7,29.59,NW,315,9.6,11.9,23,0.00,,,0.00,VWS V13.01,2013-03-02 16:19:00,
2013-03-02 10:20:00,29.5,-3.7,29.59,NW,315,8.3,10.1,23,0.00,,,0.00,VWS V13.01,2013-03-02 16:20:00,
2013-03-02 10:21:00,29.7,-3.6,29.59,NW,315,10.1,15.0,23,0.00,,,0.00,VWS V13.01,2013-03-02 16:21:00,
2013-03-02 10:22:00,29.7,-3.6,29.59,WNW,292,8.3,16.3,23,0.00,,,0.00,VWS V13.01,2013-03-02 16:22:00,
2013-03-02 10:23:00,29.7,-3.6,29.59,NW,315,13.6,15.0,23,0.00,,,0.00,VWS V13.01,2013-03-02 16:23:00,
2013-03-02 10:24:00,29.5,-3.7,29.59,NNW,338,12.3,13.6,23,0.00,,,0.00,VWS V13.01,2013-03-02 16:24:00,
2013-03-02 10:25:00,29.7,-3.6,29.59,NW,315,12.8,12.8,23,0.00,,,0.00,VWS V13.01,2013-03-02 16:25:00,
2013-03-02 10:26:00,29.7,-3.6,29.59,NW,315,6.3,12.8,23,0.00,,,0.00,VWS V13.01,2013-03-02 16:26:00,
2013-03-02 10:27:00,29.8,-3.4,29.59,NW,315,7.6,10.1,23,0.00,,,0.00,VWS V13.01,2013-03-02 16:27:00,
2013-03-02 10:28:00,29.8,-3.4,29.59,WNW,292,12.3,12.3,23,0.00,,,0.00,VWS V13.01,2013-03-02 16:28:00,
2013-03-02 10:29:00,29.8,-3.4,29.59,NW,315,11.0,17.0,23,0.00,,,0.00,VWS V13.01,2013-03-02 16:29:00,
2013-03-02 10:30:00,29.8,-3.4,29.59,NW,315,6.3,11.0,23,0.00,,,0.00,VWS V13.01,2013-03-02 16:30:00,
2013-03-02 10:31:00,30.0,-3.3,29.59,NW,315,12.3,15.4,23,0.00,,,0.00,VWS V13.01,2013-03-02 16:31:00,
2013-03-02 10:32:00,30.0,-3.3,29.59,WNW,292,14.1,14.1,23,0.00,,,0.00,VWS V13.01,2013-03-02 16:32:00,
2013-03-02 10:33:00,30.2,-3.1,29.59,West,270,8.1,14.1,23,0.00,,,0.00,VWS V13.01,2013-03-02 16:33:00,
2013-03-02 10:34:00,30.2,-3.1,29.59,West,270,7.2,8.7,23,0.00,,,0.00,VWS V13.01,2013-03-02 16:34:00,
2013-03-02 10:35:00,30.2,-3.1,29.59,NW,315,8.3,8.3,23,0.00,,,0.00,VWS V13.01,2013-03-02 16:35:00,
2013-03-02 10:36:00,30.2,-3.1,29.59,West,270,8.7,11.4,23,0.00,,,0.00,VWS V13.01,2013-03-02 16:36:00,
2013-03-02 10:37:00,30.2,-3.1,29.59,West,270,8.3,11.0,23,0.00,,,0.00,VWS V13.01,2013-03-02 16:37:00,
2013-03-02 10:38:00,30.0,-3.3,29.59,NW,315,12.3,12.8,23,0.00,,,0.00,VWS V13.01,2013-03-02 16:38:00,
2013-03-02 10:39:00,30.2,-3.1,29.59,West,270,8.3,12.8,23,0.00,,,0.00,VWS V13.01,2013-03-02 16:39:00,
2013-03-02 10:40:00,30.0,-3.3,29.59,West,270,11.0,13.2,23,0.00,,,0.00,VWS V13.01,2013-03-02 16:40:00,
2013-03-02 10:41:00,30.2,-3.1,29.59,NW,315,5.8,11.0,23,0.00,,,0.00,VWS V13.01,2013-03-02 16:41:00,
2013-03-02 10:42:00,30.2,-3.1,29.59,NW,315,8.1,8.3,23,0.00,,,0.00,VWS V13.01,2013-03-02 16:42:00,
2013-03-02 10:43:00,30.4,-3.0,29.59,NW,315,5.8,8.1,23,0.00,,,0.00,VWS V13.01,2013-03-02 16:43:00,
2013-03-02 10:44:00,30.4,-3.0,29.59,NNW,338,10.1,10.1,23,0.00,,,0.00,VWS V13.01,2013-03-02 16:44:00,
2013-03-02 10:45:00,30.4,-3.0,29.59,NW,315,6.3,10.1,23,0.00,,,0.00,VWS V13.01,2013-03-02 16:45:00,
2013-03-02 10:46:00,30.4,-3.0,29.59,NW,315,10.5,12.8,23,0.00,,,0.00,VWS V13.01,2013-03-02 16:46:00,
2013-03-02 10:47:00,30.4,-3.0,29.59,WNW,292,8.1,13.2,23,0.00,,,0.00,VWS V13.01,2013-03-02 16:47:00,
2013-03-02 10:48:00,30.4,-3.0,29.59,NW,315,6.3,11.9,23,0.00,,,0.00,VWS V13.01,2013-03-02 16:48:00,
2013-03-02 10:49:00,30.6,-2.8,29.59,NW,315,4.0,9.6,23,0.00,,,0.00,VWS V13.01,2013-03-02 16:49:00,
2013-03-02 10:50:00,30.9,-2.5,29.59,West,270,7.6,7.6,23,0.00,,,0.00,VWS V13.01,2013-03-02 16:50:00,
2013-03-02 10:51:00,30.9,-2.5,29.59,WNW,292,7.6,8.1,23,0.00,,,0.00,VWS V13.01,2013-03-02 16:51:00,
2013-03-02 10:52:00,30.9,-2.5,29.59,NW,315,10.1,11.0,23,0.00,,,0.00,VWS V13.01,2013-03-02 16:52:00,
2013-03-02 10:53:00,30.7,-2.7,29.59,West,270,5.8,10.1,23,0.00,,,0.00,VWS V13.01,2013-03-02 16:53:00,
2013-03-02 10:54:00,30.9,-2.5,29.59,NW,315,11.0,13.2,23,0.00,,,0.00,VWS V13.01,2013-03-02 16:54:00,
2013-03-02 10:55:00,30.9,-2.5,29.59,WNW,292,6.3,11.0,23,0.00,,,0.00,VWS V13.01,2013-03-02 16:55:00,
2013-03-02 10:56:00,30.9,-2.5,29.59,NNW,338,8.3,10.1,23,0.00,,,0.00,VWS V13.01,2013-03-02 16:56:00,
2013-03-02 10:57:00,30.9,-2.5,29.59,NW,315,13.6,13.6,23,0.00,,,0.00,VWS V13.01,2013-03-02 16:57:00,
2013-03-02 10:58:00,30.7,-2.7,29.59,West,270,8.1,13.6,23,0.00,,,0.00,VWS V13.01,2013-03-02 16:58:00,
2013-03-02 10:59:00,30.7,-2.7,29.59,NW,315,8.3,10.1,23,0.00,,,0.00,VWS V13.01,2013-03-02 16:59:00,
2013-03-02 11:00:00,30.9,-2.5,29.59,West,270,8.7,11.9,23,0.00,,,0.00,VWS V13.01,2013-03-02 17:00:00,
2013-03-02 11:01:00,31.1,-2.4,29.59,West,270,8.1,11.0,23,0.00,,,0.00,VWS V13.01,2013-03-02 17:01:00,
2013-03-02 11:02:00,31.1,-2.4,29.59,NW,315,5.8,11.0,23,0.00,,,0.00,VWS V13.01,2013-03-02 17:02:00,
2013-03-02 11:03:00,30.9,-2.5,29.59,WNW,292,5.8,8.3,23,0.00,,,0.00,VWS V13.01,2013-03-02 17:03:00,
2013-03-02 11:04:00,31.1,-2.4,29.59,West,270,12.8,12.8,23,0.00,,,0.00,VWS V13.01,2013-03-02 17:04:00,
2013-03-02 11:05:00,30.9,-2.5,29.59,NW,315,6.3,12.8,23,0.00,,,0.00,VWS V13.01,2013-03-02 17:05:00,
2013-03-02 11:06:00,31.1,-2.4,29.59,NW,315,10.1,12.3,23,0.00,,,0.00,VWS V13.01,2013-03-02 17:06:00,
2013-03-02 11:07:00,31.1,-2.4,29.59,WNW,292,8.1,10.1,23,0.00,,,0.00,VWS V13.01,2013-03-02 17:07:00,
2013-03-02 11:08:00,31.1,-2.4,29.59,NW,315,11.0,11.0,23,0.00,,,0.00,VWS V13.01,2013-03-02 17:08:00,
2013-03-02 11:09:00,31.5,-2.0,29.59,NW,315,11.0,14.1,23,0.00,,,0.00,VWS V13.01,2013-03-02 17:09:00,
2013-03-02 11:10:00,31.3,-2.2,29.59,NW,315,12.3,14.1,23,0.00,,,0.00,VWS V13.01,2013-03-02 17:10:00,
2013-03-02 11:11:00,31.3,-2.2,29.59,West,270,11.4,12.3,23,0.00,,,0.00,VWS V13.01,2013-03-02 17:11:00,
2013-03-02 11:12:00,31.3,-2.2,29.59,NW,315,8.3,11.4,23,0.00,,,0.00,VWS V13.01,2013-03-02 17:12:00,
2013-03-02 11:13:00,31.3,-2.2,29.59,NW,315,10.5,10.5,23,0.00,,,0.00,VWS V13.01,2013-03-02 17:13:00,
2013-03-02 11:14:00,32.0,-1.6,29.59,NNW,338,8.1,10.1,23,0.00,,,0.00,VWS V13.01,2013-03-02 17:14:00,
2013-03-02 11:15:00,32.0,-1.6,29.59,WNW,292,8.3,10.1,23,0.00,,,0.00,VWS V13.01,2013-03-02 17:15:00,
2013-03-02 11:16:00,32.0,-1.6,29.59,NW,315,6.3,8.7,23,0.00,,,0.00,VWS V13.01,2013-03-02 17:16:00,
2013-03-02 11:17:00,32.0,-1.6,29.59,NW,315,10.5,10.5,23,0.00,,,0.00,VWS V13.01,2013-03-02 17:17:00,
2013-03-02 11:18:00,32.2,-1.4,29.59,NW,315,10.1,11.0,23,0.00,,,0.00,VWS V13.01,2013-03-02 17:18:00,
2013-03-02 11:19:00,32.0,-1.6,29.59,NW,315,5.8,10.5,23,0.00,,,0.00,VWS V13.01,2013-03-02 17:19:00,
2013-03-02 11:20:00,32.2,-1.4,29.59,NNW,338,8.1,10.5,23,0.00,,,0.00,VWS V13.01,2013-03-02 17:20:00,
2013-03-02 11:21:00,32.0,-1.6,29.59,West,270,8.3,10.1,23,0.00,,,0.00,VWS V13.01,2013-03-02 17:21:00,
2013-03-02 11:22:00,32.2,-1.4,29.59,WNW,292,9.6,12.8,23,0.00,,,0.00,VWS V13.01,2013-03-02 17:22:00,
2013-03-02 11:23:00,31.8,-1.8,29.59,WNW,292,8.3,10.5,23,0.00,,,0.00,VWS V13.01,2013-03-02 17:23:00,
2013-03-02 11:24:00,32.0,-1.6,29.59,West,270,11.0,11.0,23,0.00,,,0.00,VWS V13.01,2013-03-02 17:24:00,
2013-03-02 11:25:00,32.0,-1.6,29.59,WNW,292,9.6,13.2,23,0.00,,,0.00,VWS V13.01,2013-03-02 17:25:00,
2013-03-02 11:26:00,32.0,-1.6,29.59,West,270,6.3,9.6,23,0.00,,,0.00,VWS V13.01,2013-03-02 17:26:00,
2013-03-02 11:27:00,32.0,-1.6,29.59,West,270,8.1,15.0,23,0.00,,,0.00,VWS V13.01,2013-03-02 17:27:00,
2013-03-02 11:28:00,32.2,-1.4,29.59,NW,315,12.8,12.8,23,0.00,,,0.00,VWS V13.01,2013-03-02 17:28:00,
2013-03-02 11:29:00,31.8,-1.8,29.59,NW,315,8.7,10.1,23,0.00,,,0.00,VWS V13.01,2013-03-02 17:29:00,
2013-03-02 11:30:00,31.8,-1.8,29.59,West,270,11.4,11.4,23,0.00,,,0.00,VWS V13.01,2013-03-02 17:30:00,
2013-03-02 11:31:00,32.0,-1.6,29.59,NW,315,9.6,11.9,23,0.00,,,0.00,VWS V13.01,2013-03-02 17:31:00,
2013-03-02 11:32:00,31.8,-1.8,29.59,West,270,12.8,12.8,23,0.00,,,0.00,VWS V13.01,2013-03-02 17:32:00,
2013-03-02 11:33:00,31.8,-1.8,29.59,NW,315,15.0,15.0,23,0.00,,,0.00,VWS V13.01,2013-03-02 17:33:00,
2013-03-02 11:34:00,31.8,-1.8,29.59,WNW,292,8.7,14.1,23,0.00,,,0.00,VWS V13.01,2013-03-02 17:34:00,
2013-03-02 11:35:00,31.6,-1.9,29.59,West,270,10.1,14.1,23,0.00,,,0.00,VWS V13.01,2013-03-02 17:35:00,
2013-03-02 11:36:00,31.6,-1.9,29.59,West,270,8.1,13.2,23,0.00,,,0.00,VWS V13.01,2013-03-02 17:36:00,
2013-03-02 11:37:00,31.6,-1.9,29.59,NW,315,7.2,9.6,23,0.00,,,0.00,VWS V13.01,2013-03-02 17:37:00,
2013-03-02 11:38:00,31.8,-1.8,29.59,West,270,5.8,7.2,23,0.00,,,0.00,VWS V13.01,2013-03-02 17:38:00,
2013-03-02 11:39:00,32.0,-1.6,29.59,NW,315,10.1,12.3,23,0.00,,,0.00,VWS V13.01,2013-03-02 17:39:00,
2013-03-02 11:40:00,32.0,-1.6,29.59,NW,315,8.7,12.3,23,0.00,,,0.00,VWS V13.01,2013-03-02 17:40:00,
2013-03-02 11:41:00,32.0,-1.6,29.59,West,270,9.2,9.2,23,0.00,,,0.00,VWS V13.01,2013-03-02 17:41:00,
2013-03-02 11:42:00,32.0,-1.6,29.59,WNW,292,8.1,11.0,23,0.00,,,0.00,VWS V13.01,2013-03-02 17:42:00,
2013-03-02 11:43:00,31.8,-1.8,29.59,NW,315,13.6,13.6,23,0.00,,,0.00,VWS V13.01,2013-03-02 17:43:00,
2013-03-02 11:44:00,31.3,-2.2,29.59,West,270,9.2,15.9,23,0.00,,,0.00,VWS V13.01,2013-03-02 17:44:00,
2013-03-02 11:45:00,31.3,-2.2,29.59,West,270,9.2,15.9,23,0.00,,,0.00,VWS V13.01,2013-03-02 17:45:00,
2013-03-02 11:46:00,31.3,-2.2,29.59,North,0,5.8,10.1,23,0.00,,,0.00,VWS V13.01,2013-03-02 17:46:00,
2013-03-02 11:47:00,31.3,-2.2,29.59,West,270,7.6,10.5,23,0.00,,,0.00,VWS V13.01,2013-03-02 17:47:00,
2013-03-02 11:48:00,31.5,-2.0,29.59,NW,315,13.2,13.2,23,0.00,,,0.00,VWS V13.01,2013-03-02 17:48:00,
2013-03-02 11:49:00,31.8,-1.8,29.59,WNW,292,8.1,8.7,23,0.00,,,0.00,VWS V13.01,2013-03-02 17:49:00,
2013-03-02 11:50:00,31.8,-1.8,29.59,WNW,292,8.7,8.7,23,0.00,,,0.00,VWS V13.01,2013-03-02 17:50:00,
2013-03-02 11:51:00,31.8,-1.8,29.59,NW,315,8.3,10.1,23,0.00,,,0.00,VWS V13.01,2013-03-02 17:51:00,
2013-03-02 11:52:00,31.8,-1.8,29.59,WNW,292,14.1,17.0,23,0.00,,,0.00,VWS V13.01,2013-03-02 17:52:00,
2013-03-02 11:53:00,31.8,-1.8,29.59,NW,315,8.7,14.1,23,0.00,,,0.00,VWS V13.01,2013-03-02 17:53:00,
2013-03-02 11:54:00,31.5,-2.0,29.59,NW,315,14.5,14.5,23,0.00,,,0.00,VWS V13.01,2013-03-02 17:54:00,
2013-03-02 11:55:00,31.5,-2.0,29.59,NW,315,16.3,16.3,23,0.00,,,0.00,VWS V13.01,2013-03-02 17:55:00,
2013-03-02 11:56:00,31.5,-2.0,29.59,West,270,14.1,19.7,23,0.00,,,0.00,VWS V13.01,2013-03-02 17:56:00,
2013-03-02 11:57:00,31.6,-1.9,29.59,West,270,9.6,14.1,23,0.00,,,0.00,VWS V13.01,2013-03-02 17:57:00,
2013-03-02 11:58:00,31.6,-1.9,29.59,NW,315,8.3,12.8,23,0.00,,,0.00,VWS V13.01,2013-03-02 17:58:00,
2013-03-02 11:59:00,31.8,-1.8,29.59,NW,315,14.1,14.1,23,0.00,,,0.00,VWS V13.01,2013-03-02 17:59:00,
2013-03-02 12:00:00,31.8,-1.8,29.59,NW,315,17.9,17.9,23,0.00,,,0.00,VWS V13.01,2013-03-02 18:00:00,
2013-03-02 12:01:00,31.8,-1.8,29.59,NW,315,10.1,17.9,23,0.00,,,0.00,VWS V13.01,2013-03-02 18:01:00,
2013-03-02 12:02:00,31.8,-1.8,29.59,WNW,292,9.6,14.1,23,0.00,,,0.00,VWS V13.01,2013-03-02 18:02:00,
2013-03-02 12:03:00,31.1,-2.4,29.59,West,270,7.2,17.0,23,0.00,,,0.00,VWS V13.01,2013-03-02 18:03:00,
2013-03-02 12:04:00,31.1,-2.4,29.59,West,270,8.7,10.5,23,0.00,,,0.00,VWS V13.01,2013-03-02 18:04:00,
2013-03-02 12:05:00,31.1,-5.3,29.59,NW,315,13.2,15.4,20,0.00,,,0.00,VWS V13.01,2013-03-02 18:05:00,
2013-03-02 12:06:00,31.1,-5.3,29.59,West,270,8.3,14.5,20,0.00,,,0.00,VWS V13.01,2013-03-02 18:06:00,
2013-03-02 12:07:00,31.1,-2.4,29.59,NW,315,12.8,12.8,23,0.00,,,0.00,VWS V13.01,2013-03-02 18:07:00,
2013-03-02 12:08:00,31.3,-2.2,29.59,WNW,292,12.3,15.4,23,0.00,,,0.00,VWS V13.01,2013-03-02 18:08:00,
2013-03-02 12:09:00,31.5,-2.0,29.59,West,270,13.2,13.2,23,0.00,,,0.00,VWS V13.01,2013-03-02 18:09:00,
2013-03-02 12:10:00,31.3,-5.1,29.59,West,270,10.5,10.5,20,0.00,,,0.00,VWS V13.01,2013-03-02 18:10:00,
2013-03-02 12:11:00,31.6,-1.9,29.59,NW,315,13.2,13.6,23,0.00,,,0.00,VWS V13.01,2013-03-02 18:11:00,
2013-03-02 12:12:00,31.6,-1.9,29.59,NW,315,7.6,16.8,23,0.00,,,0.00,VWS V13.01,2013-03-02 18:12:00,
2013-03-02 12:13:00,31.6,-1.9,29.59,NW,315,7.6,12.8,23,0.00,,,0.00,VWS V13.01,2013-03-02 18:13:00,
2013-03-02 12:14:00,32.0,-1.6,29.59,NW,315,8.7,14.5,23,0.00,,,0.00,VWS V13.01,2013-03-02 18:14:00,
2013-03-02 12:15:00,32.0,-1.6,29.59,NW,315,10.1,12.3,23,0.00,,,0.00,VWS V13.01,2013-03-02 18:15:00,
2013-03-02 12:16:00,31.8,-4.7,29.59,NW,315,8.3,12.3,20,0.00,,,0.00,VWS V13.01,2013-03-02 18:16:00,
2013-03-02 12:17:00,31.8,-4.7,29.59,NW,315,12.3,15.4,20,0.00,,,0.00,VWS V13.01,2013-03-02 18:17:00,
2013-03-02 12:18:00,31.6,-4.8,29.59,NW,315,10.1,12.3,20,0.00,,,0.00,VWS V13.01,2013-03-02 18:18:00,
2013-03-02 12:19:00,31.8,-1.8,29.59,NW,315,8.3,10.1,23,0.00,,,0.00,VWS V13.01,2013-03-02 18:19:00,
2013-03-02 12:20:00,31.8,-1.8,29.59,West,270,12.3,12.3,23,0.00,,,0.00,VWS V13.01,2013-03-02 18:20:00,
2013-03-02 12:21:00,32.0,-1.6,29.59,WNW,292,8.7,12.3,23,0.00,,,0.00,VWS V13.01,2013-03-02 18:21:00,
2013-03-02 12:22:00,32.0,-1.6,29.59,WNW,292,8.1,8.7,23,0.00,,,0.00,VWS V13.01,2013-03-02 18:22:00,
2013-03-02 12:23:00,32.2,-1.4,29.59,NW,315,7.6,15.9,23,0.00,,,0.00,VWS V13.01,2013-03-02 18:23:00,
2013-03-02 12:24:00,32.2,-1.4,29.59,West,270,10.5,10.5,23,0.00,,,0.00,VWS V13.01,2013-03-02 18:24:00,
2013-03-02 12:25:00,32.4,-1.3,29.59,NW,315,10.5,11.0,23,0.00,,,0.00,VWS V13.01,2013-03-02 18:25:00,
2013-03-02 12:26:00,32.5,-4.1,29.59,NW,315,5.4,11.0,20,0.00,,,0.00,VWS V13.01,2013-03-02 18:26:00,
2013-03-02 12:27:00,32.5,-4.1,29.59,NW,315,7.6,14.5,20,0.00,,,0.00,VWS V13.01,2013-03-02 18:27:00,
2013-03-02 12:28:00,32.4,-4.2,29.59,WNW,292,6.3,12.8,20,0.00,,,0.00,VWS V13.01,2013-03-02 18:28:00,
2013-03-02 12:29:00,32.4,-4.2,29.59,NW,315,12.8,12.8,20,0.00,,,0.00,VWS V13.01,2013-03-02 18:29:00,
2013-03-02 12:30:00,32.2,-1.4,29.59,WNW,292,14.5,14.5,23,0.00,,,0.00,VWS V13.01,2013-03-02 18:30:00,
2013-03-02 12:31:00,32.2,-1.4,29.59,West,270,11.0,15.4,23,0.00,,,0.00,VWS V13.01,2013-03-02 18:31:00,
2013-03-02 12:32:00,32.2,-1.4,29.59,WNW,292,14.5,15.9,23,0.00,,,0.00,VWS V13.01,2013-03-02 18:32:00,
2013-03-02 12:33:00,32.0,-1.6,29.59,WNW,292,7.6,14.5,23,0.00,,,0.00,VWS V13.01,2013-03-02 18:33:00,
2013-03-02 12:34:00,31.8,-1.8,29.59,NW,315,11.0,13.2,23,0.00,,,0.00,VWS V13.01,2013-03-02 18:34:00,
2013-03-02 12:35:00,31.8,-1.8,29.59,WNW,292,6.3,12.8,23,0.00,,,0.00,VWS V13.01,2013-03-02 18:35:00,
2013-03-02 12:36:00,32.0,-1.6,29.59,NW,315,7.2,12.8,23,0.00,,,0.00,VWS V13.01,2013-03-02 18:36:00,
2013-03-02 12:37:00,32.0,-4.5,29.59,West,270,8.7,13.6,20,0.00,,,0.00,VWS V13.01,2013-03-02 18:37:00,
2013-03-02 12:38:00,32.0,-4.5,29.59,NNW,338,10.5,10.5,20,0.00,,,0.00,VWS V13.01,2013-03-02 18:38:00,
2013-03-02 12:39:00,32.2,-4.4,29.59,West,270,12.8,12.8,20,0.00,,,0.00,VWS V13.01,2013-03-02 18:39:00,
2013-03-02 12:40:00,31.8,-4.7,29.59,NW,315,8.3,11.4,20,0.00,,,0.00,VWS V13.01,2013-03-02 18:40:00,
2013-03-02 12:41:00,31.8,-4.7,29.59,WNW,292,10.1,11.4,20,0.00,,,0.00,VWS V13.01,2013-03-02 18:41:00,
2013-03-02 12:42:00,31.8,-4.7,29.59,NW,315,8.7,15.4,20,0.00,,,0.00,VWS V13.01,2013-03-02 18:42:00,
2013-03-02 12:43:00,31.8,-4.7,29.59,NW,315,9.6,9.6,20,0.00,,,0.00,VWS V13.01,2013-03-02 18:43:00,
2013-03-02 12:44:00,31.8,-4.7,29.59,NW,315,4.9,10.1,20,0.00,,,0.00,VWS V13.01,2013-03-02 18:44:00,
2013-03-02 12:45:00,32.2,-4.4,29.59,NW,315,9.6,10.1,20,0.00,,,0.00,VWS V13.01,2013-03-02 18:45:00,
2013-03-02 12:46:00,32.2,-4.4,29.59,West,270,6.3,10.1,20,0.00,,,0.00,VWS V13.01,2013-03-02 18:46:00,
2013-03-02 12:47:00,32.2,-4.4,29.59,NW,315,7.6,10.1,20,0.00,,,0.00,VWS V13.01,2013-03-02 18:47:00,
2013-03-02 12:48:00,32.0,-4.5,29.59,West,270,7.2,9.6,20,0.00,,,0.00,VWS V13.01,2013-03-02 18:48:00,
2013-03-02 12:49:00,32.0,-4.5,29.59,WNW,292,9.6,15.0,20,0.00,,,0.00,VWS V13.01,2013-03-02 18:49:00,
2013-03-02 12:50:00,32.0,-4.5,29.59,NW,315,8.1,8.3,20,0.00,,,0.00,VWS V13.01,2013-03-02 18:50:00,
2013-03-02 12:51:00,32.0,-4.5,29.59,WNW,292,6.3,8.3,20,0.00,,,0.00,VWS V13.01,2013-03-02 18:51:00,
2013-03-02 12:52:00,31.8,-4.7,29.59,NNW,338,7.6,7.6,20,0.00,,,0.00,VWS V13.01,2013-03-02 18:52:00,
2013-03-02 12:53:00,32.0,-4.5,29.59,NW,315,11.9,11.9,20,0.00,,,0.00,VWS V13.01,2013-03-02 18:53:00,
2013-03-02 12:54:00,32.0,-4.5,29.59,NW,315,9.6,12.3,20,0.00,,,0.00,VWS V13.01,2013-03-02 18:54:00,
2013-03-02 12:55:00,32.2,-4.4,29.59,WNW,292,13.2,13.2,20,0.00,,,0.00,VWS V13.01,2013-03-02 18:55:00,
2013-03-02 12:56:00,32.2,-4.4,29.59,West,270,12.3,13.2,20,0.00,,,0.00,VWS V13.01,2013-03-02 18:56:00,
2013-03-02 12:57:00,32.2,-4.4,29.59,NW,315,4.9,12.3,20,0.00,,,0.00,VWS V13.01,2013-03-02 18:57:00,
2013-03-02 12:58:00,32.4,-4.2,29.59,SW,225,8.1,8.1,20,0.00,,,0.00,VWS V13.01,2013-03-02 18:58:00,
2013-03-02 12:59:00,32.4,-4.2,29.59,NNW,338,8.7,11.0,20,0.00,,,0.00,VWS V13.01,2013-03-02 18:59:00,
2013-03-02 13:00:00,32.5,-4.1,29.59,WNW,292,12.8,16.3,20,0.00,,,0.00,VWS V13.01,2013-03-02 19:00:00,
2013-03-02 13:01:00,32.5,-4.1,29.59,NW,315,8.1,16.3,20,0.00,,,0.00,VWS V13.01,2013-03-02 19:01:00,
2013-03-02 13:02:00,32.4,-4.2,29.59,NW,315,14.5,14.5,20,0.00,,,0.00,VWS V13.01,2013-03-02 19:02:00,
2013-03-02 13:03:00,32.4,-4.2,29.59,West,270,13.6,14.5,20,0.00,,,0.00,VWS V13.01,2013-03-02 19:03:00,
2013-03-02 13:04:00,31.8,-4.7,29.59,NW,315,10.1,14.5,20,0.00,,,0.00,VWS V13.01,2013-03-02 19:04:00,
2013-03-02 13:05:00,31.6,-4.8,29.59,WNW,292,12.8,12.8,20,0.00,,,0.00,VWS V13.01,2013-03-02 19:05:00,
2013-03-02 13:06:00,31.6,-4.8,29.59,WNW,292,12.8,12.8,20,0.00,,,0.00,VWS V13.01,2013-03-02 19:06:00,
2013-03-02 13:07:00,31.6,-4.8,29.59,North,0,11.0,15.4,20,0.00,,,0.00,VWS V13.01,2013-03-02 19:07:00,
2013-03-02 13:08:00,31.8,-4.7,29.59,West,270,17.0,17.0,20,0.00,,,0.00,VWS V13.01,2013-03-02 19:08:00,
2013-03-02 13:09:00,31.8,-4.7,29.59,NW,315,11.0,17.0,20,0.00,,,0.00,VWS V13.01,2013-03-02 19:09:00,
2013-03-02 13:10:00,31.8,-4.7,29.59,NW,315,11.0,15.4,20,0.00,,,0.00,VWS V13.01,2013-03-02 19:10:00,
2013-03-02 13:11:00,31.8,-4.7,29.59,NW,315,10.5,14.1,20,0.00,,,0.00,VWS V13.01,2013-03-02 19:11:00,
2013-03-02 13:12:00,31.8,-4.7,29.59,West,270,7.2,10.5,20,0.00,,,0.00,VWS V13.01,2013-03-02 19:12:00,
2013-03-02 13:13:00,32.0,-4.5,29.59,NW,315,8.7,9.2,20,0.00,,,0.00,VWS V13.01,2013-03-02 19:13:00,
2013-03-02 13:14:00,32.0,-4.5,29.59,NW,315,15.4,15.4,20,0.00,,,0.00,VWS V13.01,2013-03-02 19:14:00,
2013-03-02 13:15:00,32.0,-4.5,29.59,NW,315,12.3,17.5,20,0.00,,,0.00,VWS V13.01,2013-03-02 19:15:00,
2013-03-02 13:16:00,31.8,-4.7,29.59,NW,315,10.5,15.4,20,0.00,,,0.00,VWS V13.01,2013-03-02 19:16:00,
2013-03-02 13:17:00,31.6,-4.8,29.59,NW,315,10.1,15.0,20,0.00,,,0.00,VWS V13.01,2013-03-02 19:17:00,
2013-03-02 13:18:00,31.6,-4.8,29.59,NW,315,11.0,15.0,20,0.00,,,0.00,VWS V13.01,2013-03-02 19:18:00,
2013-03-02 13:19:00,32.0,-4.5,29.59,NW,315,15.0,15.0,20,0.00,,,0.00,VWS V13.01,2013-03-02 19:19:00,
2013-03-02 13:20:00,32.2,-4.4,29.59,NW,315,15.0,15.0,20,0.00,,,0.00,VWS V13.01,2013-03-02 19:20:00,
2013-03-02 13:21:00,32.0,-4.5,29.59,NW,315,10.1,15.0,20,0.00,,,0.00,VWS V13.01,2013-03-02 19:21:00,
2013-03-02 13:22:00,32.0,-4.5,29.59,WNW,292,8.1,11.0,20,0.00,,,0.00,VWS V13.01,2013-03-02 19:22:00,
2013-03-02 13:23:00,32.2,-4.4,29.59,NW,315,11.9,12.3,20,0.00,,,0.00,VWS V13.01,2013-03-02 19:23:00,
2013-03-02 13:24:00,32.4,-4.2,29.59,NW,315,8.7,12.3,20,0.00,,,0.00,VWS V13.01,2013-03-02 19:24:00,
2013-03-02 13:25:00,32.5,-4.1,29.59,NNW,338,8.1,10.5,20,0.00,,,0.00,VWS V13.01,2013-03-02 19:25:00,
2013-03-02 13:26:00,33.1,-3.6,29.59,NW,315,11.0,14.1,20,0.00,,,0.00,VWS V13.01,2013-03-02 19:26:00,
2013-03-02 13:27:00,33.1,-3.6,29.59,WNW,292,11.9,12.8,20,0.00,,,0.00,VWS V13.01,2013-03-02 19:27:00,
2013-03-02 13:28:00,32.5,-4.1,29.59,West,270,12.3,12.3,20,0.00,,,0.00,VWS V13.01,2013-03-02 19:28:00,
2013-03-02 13:29:00,32.4,-4.2,29.59,NW,315,14.5,14.5,20,0.00,,,0.00,VWS V13.01,2013-03-02 19:29:00,
2013-03-02 13:30:00,32.2,-4.4,29.59,West,270,12.8,15.0,20,0.00,,,0.00,VWS V13.01,2013-03-02 19:30:00,
2013-03-02 13:31:00,32.2,-4.4,29.59,West,270,7.2,12.8,20,0.00,,,0.00,VWS V13.01,2013-03-02 19:31:00,
2013-03-02 13:32:00,32.2,-4.4,29.59,North,0,8.3,10.5,20,0.00,,,0.00,VWS V13.01,2013-03-02 19:32:00,
2013-03-02 13:33:00,32.5,-4.1,29.59,West,270,9.6,9.6,20,0.00,,,0.00,VWS V13.01,2013-03-02 19:33:00,
2013-03-02 13:34:00,32.5,-4.1,29.59,NW,315,13.2,13.2,20,0.00,,,0.00,VWS V13.01,2013-03-02 19:34:00,
2013-03-02 13:35:00,32.7,-3.9,29.59,WNW,292,11.0,13.2,20,0.00,,,0.00,VWS V13.01,2013-03-02 19:35:00,
2013-03-02 13:36:00,32.7,-3.9,29.59,NW,315,11.0,17.5,20,0.00,,,0.00,VWS V13.01,2013-03-02 19:36:00,
2013-03-02 13:37:00,32.5,-4.1,29.59,West,270,10.1,11.9,20,0.00,,,0.00,VWS V13.01,2013-03-02 19:37:00,
2013-03-02 13:38:00,32.7,-3.9,29.59,NW,315,8.1,11.0,20,0.00,,,0.00,VWS V13.01,2013-03-02 19:38:00,
2013-03-02 13:39:00,32.7,-3.9,29.59,NW,315,8.7,8.7,20,0.00,,,0.00,VWS V13.01,2013-03-02 19:39:00,
2013-03-02 13:40:00,32.7,-3.9,29.59,NW,315,8.7,14.5,20,0.00,,,0.00,VWS V13.01,2013-03-02 19:40:00,
2013-03-02 13:41:00,32.5,-4.1,29.59,NW,315,4.0,8.7,20,0.00,,,0.00,VWS V13.01,2013-03-02 19:41:00,
2013-03-02 13:42:00,32.5,-4.1,29.59,NNW,338,14.1,14.1,20,0.00,,,0.00,VWS V13.01,2013-03-02 19:42:00,
2013-03-02 13:43:00,32.5,-4.1,29.59,West,270,8.7,14.1,20,0.00,,,0.00,VWS V13.01,2013-03-02 19:43:00,
2013-03-02 13:44:00,32.5,-4.1,29.59,NW,315,7.6,10.5,20,0.00,,,0.00,VWS V13.01,2013-03-02 19:44:00,
2013-03-02 13:45:00,32.5,-4.1,29.59,West,270,6.3,14.5,20,0.00,,,0.00,VWS V13.01,2013-03-02 19:45:00,
2013-03-02 13:46:00,32.5,-4.1,29.59,NW,315,12.8,12.8,20,0.00,,,0.00,VWS V13.01,2013-03-02 19:46:00,
2013-03-02 13:47:00,32.5,-4.1,29.56,North,0,9.6,13.2,20,0.00,,,0.00,VWS V13.01,2013-03-02 19:47:00,
2013-03-02 13:48:00,32.5,-4.1,29.56,NW,315,15.0,15.0,20,0.00,,,0.00,VWS V13.01,2013-03-02 19:48:00,
2013-03-02 13:49:00,32.5,-4.1,29.56,WNW,292,12.3,15.0,20,0.00,,,0.00,VWS V13.01,2013-03-02 19:49:00,
2013-03-02 13:50:00,32.4,-4.2,29.56,North,0,9.6,13.2,20,0.00,,,0.00,VWS V13.01,2013-03-02 19:50:00,
2013-03-02 13:51:00,32.4,-4.2,29.56,NW,315,11.4,11.4,20,0.00,,,0.00,VWS V13.01,2013-03-02 19:51:00,
2013-03-02 13:52:00,32.4,-4.2,29.56,NW,315,13.6,14.5,20,0.00,,,0.00,VWS V13.01,2013-03-02 19:52:00,
2013-03-02 13:53:00,32.2,-4.4,29.56,NW,315,6.3,13.6,20,0.00,,,0.00,VWS V13.01,2013-03-02 19:53:00,
2013-03-02 13:54:00,32.2,-4.4,29.56,NW,315,15.4,15.4,20,0.00,,,0.00,VWS V13.01,2013-03-02 19:54:00,
2013-03-02 13:55:00,32.2,-4.4,29.56,NW,315,10.5,15.4,20,0.00,,,0.00,VWS V13.01,2013-03-02 19:55:00,
2013-03-02 13:56:00,32.0,-4.5,29.56,NW,315,8.1,11.4,20,0.00,,,0.00,VWS V13.01,2013-03-02 19:56:00,
2013-03-02 13:57:00,32.2,-4.4,29.56,WNW,292,4.9,10.5,20,0.00,,,0.00,VWS V13.01,2013-03-02 19:57:00,
2013-03-02 13:58:00,32.2,-4.4,29.56,NW,315,11.9,11.9,20,0.00,,,0.00,VWS V13.01,2013-03-02 19:58:00,
2013-03-02 13:59:00,32.0,-4.5,29.56,NW,315,8.3,11.9,20,0.00,,,0.00,VWS V13.01,2013-03-02 19:59:00,
2013-03-02 14:00:00,31.8,-4.7,29.56,NNW,338,8.3,12.8,20,0.00,,,0.00,VWS V13.01,2013-03-02 20:00:00,
2013-03-02 14:01:00,32.0,-4.5,29.56,NNW,338,10.1,10.1,20,0.00,,,0.00,VWS V13.01,2013-03-02 20:01:00,
2013-03-02 14:02:00,32.0,-4.5,29.56,West,270,6.3,14.5,20,0.00,,,0.00,VWS V13.01,2013-03-02 20:02:00,
2013-03-02 14:03:00,32.2,-4.4,29.56,NW,315,10.1,12.3,20,0.00,,,0.00,VWS V13.01,2013-03-02 20:03:00,
2013-03-02 14:04:00,32.2,-4.4,29.56,NW,315,15.4,15.4,20,0.00,,,0.00,VWS V13.01,2013-03-02 20:04:00,
2013-03-02 14:05:00,32.2,-4.4,29.56,North,0,8.7,15.4,20,0.00,,,0.00,VWS V13.01,2013-03-02 20:05:00,
2013-03-02 14:06:00,32.2,-4.4,29.56,NNW,338,8.3,12.8,20,0.00,,,0.00,VWS V13.01,2013-03-02 20:06:00,
2013-03-02 14:07:00,32.2,-4.4,29.56,NW,315,15.0,15.0,20,0.00,,,0.00,VWS V13.01,2013-03-02 20:07:00,
2013-03-02 14:08:00,32.2,-4.4,29.56,NNW,338,11.0,15.0,20,0.00,,,0.00,VWS V13.01,2013-03-02 20:08:00,
2013-03-02 14:09:00,32.2,-4.4,29.56,NW,315,16.3,16.3,20,0.00,,,0.00,VWS V13.01,2013-03-02 20:09:00,
2013-03-02 14:10:00,32.2,-4.4,29.56,NW,315,9.6,16.3,20,0.00,,,0.00,VWS V13.01,2013-03-02 20:10:00,
2013-03-02 14:11:00,32.2,-4.4,29.56,WNW,292,8.3,10.5,20,0.00,,,0.00,VWS V13.01,2013-03-02 20:11:00,
2013-03-02 14:12:00,32.2,-4.4,29.56,NW,315,6.3,8.3,20,0.00,,,0.00,VWS V13.01,2013-03-02 20:12:00,
2013-03-02 14:13:00,32.2,-4.4,29.56,WNW,292,11.0,12.3,20,0.00,,,0.00,VWS V13.01,2013-03-02 20:13:00,
2013-03-02 14:14:00,32.2,-4.4,29.56,NNW,338,7.2,14.1,20,0.00,,,0.00,VWS V13.01,2013-03-02 20:14:00,
2013-03-02 14:15:00,32.4,-4.2,29.56,NW,315,12.8,12.8,20,0.00,,,0.00,VWS V13.01,2013-03-02 20:15:00,
2013-03-02 16:16:00,33.6,-3.2,29.59,NW,315,10.5,10.5,20,0.00,,,0.00,VWS V13.01,2013-03-02 22:16:00,
2013-03-02 16:17:00,33.6,-3.2,29.59,NW,315,12.3,12.3,20,0.00,,,0.00,VWS V13.01,2013-03-02 22:17:00,
2013-03-02 16:18:00,33.3,-3.5,29.59,WNW,292,11.0,12.3,20,0.00,,,0.00,VWS V13.01,2013-03-02 22:18:00,
2013-03-02 16:19:00,33.3,-3.5,29.59,North,0,3.6,11.0,20,0.00,,,0.00,VWS V13.01,2013-03-02 22:19:00,
2013-03-02 16:20:00,33.3,-3.5,29.59,NE,45,2.7,6.3,20,0.00,,,0.00,VWS V13.01,2013-03-02 22:20:00,
2013-03-02 16:21:00,33.1,-3.6,29.59,NNW,338,8.3,8.3,20,0.00,,,0.00,VWS V13.01,2013-03-02 22:21:00,
2013-03-02 16:22:00,33.1,-3.6,29.59,NW,315,12.3,12.3,20,0.00,,,0.00,VWS V13.01,2013-03-02 22:22:00,
2013-03-02 16:23:00,32.9,-3.8,29.59,NNW,338,9.6,12.3,20,0.00,,,0.00,VWS V13.01,2013-03-02 22:23:00,
2013-03-02 16:24:00,32.7,-3.9,29.59,NNW,338,7.6,10.5,20,0.00,,,0.00,VWS V13.01,2013-03-02 22:24:00,
2013-03-02 16:25:00,32.5,-4.1,29.59,NNW,338,5.8,10.1,20,0.00,,,0.00,VWS V13.01,2013-03-02 22:25:00,
2013-03-02 16:26:00,32.5,-4.1,29.59,NW,315,9.6,10.1,20,0.00,,,0.00,VWS V13.01,2013-03-02 22:26:00,
2013-03-02 16:27:00,32.5,-4.1,29.59,NW,315,9.6,10.1,20,0.00,,,0.00,VWS V13.01,2013-03-02 22:27:00,
2013-03-02 16:28:00,32.4,-4.2,29.59,NW,315,8.3,10.1,20,0.00,,,0.00,VWS V13.01,2013-03-02 22:28:00,
2013-03-02 16:29:00,32.5,-4.1,29.59,North,0,11.0,11.0,20,0.00,,,0.00,VWS V13.01,2013-03-02 22:29:00,
2013-03-02 16:30:00,32.5,-4.1,29.59,NW,315,8.3,11.0,20,0.00,,,0.00,VWS V13.01,2013-03-02 22:30:00,
2013-03-02 16:31:00,32.5,-4.1,29.59,NNW,338,6.3,8.3,20,0.00,,,0.00,VWS V13.01,2013-03-02 22:31:00,
2013-03-02 16:32:00,32.5,-4.1,29.59,NW,315,8.1,8.1,20,0.00,,,0.00,VWS V13.01,2013-03-02 22:32:00,
2013-03-02 16:33:00,32.7,-3.9,29.59,NW,315,6.3,8.1,20,0.00,,,0.00,VWS V13.01,2013-03-02 22:33:00,
2013-03-02 16:34:00,32.7,-3.9,29.59,NNW,338,12.8,12.8,20,0.00,,,0.00,VWS V13.01,2013-03-02 22:34:00,
2013-03-02 16:35:00,32.7,-3.9,29.59,WNW,292,8.1,12.8,20,0.00,,,0.00,VWS V13.01,2013-03-02 22:35:00,
2013-03-02 16:36:00,32.7,-3.9,29.59,West,270,5.4,8.7,20,0.00,,,0.00,VWS V13.01,2013-03-02 22:36:00,
2013-03-02 16:37:00,32.7,-3.9,29.59,NW,315,5.8,5.8,20,0.00,,,0.00,VWS V13.01,2013-03-02 22:37:00,
2013-03-02 16:38:00,32.5,-4.1,29.59,WNW,292,5.8,7.6,20,0.00,,,0.00,VWS V13.01,2013-03-02 22:38:00,
2013-03-02 16:39:00,32.5,-4.1,29.59,NW,315,5.8,6.3,20,0.00,,,0.00,VWS V13.01,2013-03-02 22:39:00,
2013-03-02 16:40:00,32.4,-4.2,29.59,West,270,5.8,11.0,20,0.00,,,0.00,VWS V13.01,2013-03-02 22:40:00,
2013-03-02 16:41:00,32.4,-4.2,29.59,NNW,338,7.2,8.7,20,0.00,,,0.00,VWS V13.01,2013-03-02 22:41:00,
2013-03-02 16:42:00,32.2,-4.4,29.59,West,270,7.6,8.7,20,0.00,,,0.00,VWS V13.01,2013-03-02 22:42:00,
2013-03-02 16:43:00,32.2,-4.4,29.59,WNW,292,7.2,8.7,20,0.00,,,0.00,VWS V13.01,2013-03-02 22:43:00,
2013-03-02 16:44:00,32.0,-4.5,29.59,NW,315,10.1,10.1,20,0.00,,,0.00,VWS V13.01,2013-03-02 22:44:00,
2013-03-02 16:45:00,32.0,-4.5,29.59,NW,315,10.5,10.5,20,0.00,,,0.00,VWS V13.01,2013-03-02 22:45:00,
2013-03-02 16:46:00,31.8,-4.7,29.59,NW,315,5.8,10.5,20,0.00,,,0.00,VWS V13.01,2013-03-02 22:46:00,
2013-03-02 16:47:00,31.8,-4.7,29.59,NW,315,4.9,7.6,20,0.00,,,0.00,VWS V13.01,2013-03-02 22:47:00,
2013-03-02 16:48:00,31.6,-4.8,29.59,WNW,292,5.8,5.8,20,0.00,,,0.00,VWS V13.01,2013-03-02 22:48:00,
2013-03-02 16:49:00,31.6,-4.8,29.59,WNW,292,8.3,8.3,20,0.00,,,0.00,VWS V13.01,2013-03-02 22:49:00,
2013-03-02 16:50:00,31.6,-4.8,29.59,NW,315,8.3,10.1,20,0.00,,,0.00,VWS V13.01,2013-03-02 22:50:00,
2013-03-02 16:51:00,31.5,-5.0,29.59,NW,315,11.0,11.0,20,0.00,,,0.00,VWS V13.01,2013-03-02 22:51:00,
2013-03-02 16:52:00,31.5,-5.0,29.59,West,270,8.3,12.3,20,0.00,,,0.00,VWS V13.01,2013-03-02 22:52:00,
2013-03-02 16:53:00,31.3,-5.1,29.59,West,270,9.2,9.2,20,0.00,,,0.00,VWS V13.01,2013-03-02 22:53:00,
2013-03-02 16:54:00,31.3,-5.1,29.59,West,270,7.6,11.0,20,0.00,,,0.00,VWS V13.01,2013-03-02 22:54:00,
2013-03-02 16:55:00,31.3,-5.1,29.59,NW,315,8.7,11.0,20,0.00,,,0.00,VWS V13.01,2013-03-02 22:55:00,
2013-03-02 16:56:00,31.1,-5.3,29.59,WNW,292,8.3,8.7,20,0.00,,,0.00,VWS V13.01,2013-03-02 22:56:00,
2013-03-02 16:57:00,31.1,-5.3,29.59,West,270,8.7,8.7,20,0.00,,,0.00,VWS V13.01,2013-03-02 22:57:00,
2013-03-02 16:58:00,31.1,-5.3,29.59,NW,315,8.3,10.1,20,0.00,,,0.00,VWS V13.01,2013-03-02 22:58:00,
2013-03-02 16:59:00,31.1,-5.3,29.59,NW,315,9.2,9.2,20,0.00,,,0.00,VWS V13.01,2013-03-02 22:59:00,
2013-03-02 17:00:00,31.1,-5.3,29.59,North,0,8.1,9.2,20,0.00,,,0.00,VWS V13.01,2013-03-02 23:00:00,
2013-03-02 17:01:00,31.1,-5.3,29.59,WNW,292,6.3,9.6,20,0.00,,,0.00,VWS V13.01,2013-03-02 23:01:00,
2013-03-02 17:02:00,31.1,-5.3,29.59,NW,315,7.6,8.7,20,0.00,,,0.00,VWS V13.01,2013-03-02 23:02:00,
2013-03-02 17:03:00,31.1,-5.3,29.59,West,270,4.9,7.6,20,0.00,,,0.00,VWS V13.01,2013-03-02 23:03:00,
2013-03-02 17:04:00,31.1,-5.3,29.59,NW,315,6.7,8.3,20,0.00,,,0.00,VWS V13.01,2013-03-02 23:04:00,
2013-03-02 17:05:00,31.1,-5.3,29.59,West,270,6.7,6.7,20,0.00,,,0.00,VWS V13.01,2013-03-02 23:05:00,
2013-03-02 17:06:00,30.9,-5.4,29.59,NW,315,5.4,6.7,20,0.00,,,0.00,VWS V13.01,2013-03-02 23:06:00,
2013-03-02 17:07:00,30.9,-5.4,29.59,West,270,9.6,9.6,20,0.00,,,0.00,VWS V13.01,2013-03-02 23:07:00,
2013-03-02 17:08:00,30.9,-5.4,29.59,NW,315,6.7,10.1,20,0.00,,,0.00,VWS V13.01,2013-03-02 23:08:00,
2013-03-02 17:09:00,30.9,-5.4,29.59,NW,315,5.4,7.6,20,0.00,,,0.00,VWS V13.01,2013-03-02 23:09:00,
2013-03-02 17:10:00,30.9,-5.4,29.59,NW,315,6.3,6.3,20,0.00,,,0.00,VWS V13.01,2013-03-02 23:10:00,
2013-03-02 17:11:00,30.9,-5.4,29.59,WNW,292,3.6,6.3,20,0.00,,,0.00,VWS V13.01,2013-03-02 23:11:00,
2013-03-02 17:12:00,30.9,-5.4,29.59,WNW,292,8.3,10.5,20,0.00,,,0.00,VWS V13.01,2013-03-02 23:12:00,
2013-03-02 17:13:00,30.7,-5.6,29.59,NNW,338,8.3,8.3,20,0.00,,,0.00,VWS V13.01,2013-03-02 23:13:00,
2013-03-02 17:14:00,30.7,-5.6,29.59,West,270,5.4,8.3,20,0.00,,,0.00,VWS V13.01,2013-03-02 23:14:00,
2013-03-02 17:15:00,30.7,-5.6,29.59,WNW,292,4.0,5.4,20,0.00,,,0.00,VWS V13.01,2013-03-02 23:15:00,
2013-03-02 17:16:00,30.7,-5.6,29.59,West,270,5.4,8.1,20,0.00,,,0.00,VWS V13.01,2013-03-02 23:16:00,
2013-03-02 17:17:00,30.7,-5.6,29.59,NW,315,6.3,8.1,20,0.00,,,0.00,VWS V13.01,2013-03-02 23:17:00,
2013-03-02 17:18:00,30.7,-5.6,29.59,NW,315,11.0,11.0,20,0.00,,,0.00,VWS V13.01,2013-03-02 23:18:00,
2013-03-02 17:19:00,30.7,-5.6,29.59,NW,315,4.0,11.0,20,0.00,,,0.00,VWS V13.01,2013-03-02 23:19:00,
2013-03-02 17:20:00,30.7,-5.6,29.59,West,270,7.6,12.3,20,0.00,,,0.00,VWS V13.01,2013-03-02 23:20:00,
2013-03-02 17:21:00,30.6,-5.7,29.59,NW,315,4.9,8.1,20,0.00,,,0.00,VWS V13.01,2013-03-02 23:21:00,
2013-03-02 17:22:00,30.6,-5.7,29.59,NW,315,3.6,7.6,20,0.00,,,0.00,VWS V13.01,2013-03-02 23:22:00,
2013-03-02 17:23:00,30.6,-5.7,29.59,West,270,7.6,8.3,20,0.00,,,0.00,VWS V13.01,2013-03-02 23:23:00,
2013-03-02 17:24:00,30.6,-5.7,29.59,NW,315,5.8,7.6,20,0.00,,,0.00,VWS V13.01,2013-03-02 23:24:00,
2013-03-02 17:25:00,30.6,-5.7,29.59,NW,315,8.7,9.6,20,0.00,,,0.00,VWS V13.01,2013-03-02 23:25:00,
2013-03-02 17:26:00,30.6,-5.7,29.59,NNW,338,5.8,8.7,20,0.00,,,0.00,VWS V13.01,2013-03-02 23:26:00,
2013-03-02 17:27:00,30.6,-5.7,29.59,NW,315,8.1,8.1,20,0.00,,,0.00,VWS V13.01,2013-03-02 23:27:00,
2013-03-02 17:28:00,30.6,-5.7,29.59,NW,315,7.2,8.1,20,0.00,,,0.00,VWS V13.01,2013-03-02 23:28:00,
2013-03-02 17:29:00,30.7,-5.6,29.59,NNW,338,8.1,8.7,20,0.00,,,0.00,VWS V13.01,2013-03-02 23:29:00,
2013-03-02 17:30:00,30.7,-5.6,29.59,WNW,292,5.4,8.1,20,0.00,,,0.00,VWS V13.01,2013-03-02 23:30:00,
2013-03-02 17:31:00,30.7,-5.6,29.59,NW,315,5.8,8.7,20,0.00,,,0.00,VWS V13.01,2013-03-02 23:31:00,
2013-03-02 17:32:00,30.7,-5.6,29.59,NW,315,5.8,8.1,20,0.00,,,0.00,VWS V13.01,2013-03-02 23:32:00,
2013-03-02 17:33:00,30.7,-5.6,29.59,NW,315,5.4,5.8,20,0.00,,,0.00,VWS V13.01,2013-03-02 23:33:00,
2013-03-02 17:34:00,30.7,-5.6,29.59,NW,315,5.8,8.7,20,0.00,,,0.00,VWS V13.01,2013-03-02 23:34:00,
2013-03-02 17:35:00,30.7,-5.6,29.59,NW,315,3.1,8.3,20,0.00,,,0.00,VWS V13.01,2013-03-02 23:35:00,
2013-03-02 17:36:00,30.7,-5.6,29.59,West,270,4.9,5.4,20,0.00,,,0.00,VWS V13.01,2013-03-02 23:36:00,
2013-03-02 17:37:00,30.7,-5.6,29.59,West,270,5.8,5.8,20,0.00,,,0.00,VWS V13.01,2013-03-02 23:37:00,
2013-03-02 17:38:00,30.7,-5.6,29.59,West,270,5.4,7.6,20,0.00,,,0.00,VWS V13.01,2013-03-02 23:38:00,
2013-03-02 17:39:00,30.7,-5.6,29.59,NNW,338,6.3,6.3,20,0.00,,,0.00,VWS V13.01,2013-03-02 23:39:00,
2013-03-02 17:40:00,30.7,-5.6,29.59,NW,315,4.0,6.3,20,0.00,,,0.00,VWS V13.01,2013-03-02 23:40:00,
2013-03-02 17:41:00,30.7,-5.6,29.59,WNW,292,5.8,5.8,20,0.00,,,0.00,VWS V13.01,2013-03-02 23:41:00,
2013-03-02 17:42:00,30.6,-5.7,29.59,NW,315,5.8,5.8,20,0.00,,,0.00,VWS V13.01,2013-03-02 23:42:00,
2013-03-02 17:43:00,30.6,-5.7,29.59,NW,315,6.7,8.3,20,0.00,,,0.00,VWS V13.01,2013-03-02 23:43:00,
2013-03-02 17:44:00,30.6,-5.7,29.59,NW,315,8.3,8.3,20,0.00,,,0.00,VWS V13.01,2013-03-02 23:44:00,
2013-03-02 17:45:00,30.4,-5.9,29.59,NW,315,8.7,10.5,20,0.00,,,0.00,VWS V13.01,2013-03-02 23:45:00,
2013-03-02 17:46:00,30.4,-5.9,29.59,NNW,338,8.3,9.6,20,0.00,,,0.00,VWS V13.01,2013-03-02 23:46:00,
2013-03-02 17:47:00,30.4,-5.9,29.59,NW,315,11.9,11.9,20,0.00,,,0.00,VWS V13.01,2013-03-02 23:47:00,
2013-03-02 17:48:00,30.4,-5.9,29.59,West,270,8.1,11.9,20,0.00,,,0.00,VWS V13.01,2013-03-02 23:48:00,
2013-03-02 17:49:00,30.4,-5.9,29.59,WNW,292,3.6,8.3,20,0.00,,,0.00,VWS V13.01,2013-03-02 23:49:00,
2013-03-02 17:50:00,30.4,-5.9,29.59,NW,315,8.3,8.3,20,0.00,,,0.00,VWS V13.01,2013-03-02 23:50:00,
2013-03-02 17:51:00,30.4,-5.9,29.59,NW,315,5.4,8.3,20,0.00,,,0.00,VWS V13.01,2013-03-02 23:51:00,
2013-03-02 17:52:00,30.2,-6.0,29.59,NW,315,4.0,6.7,20,0.00,,,0.00,VWS V13.01,2013-03-02 23:52:00,
2013-03-02 17:53:00,30.2,-6.0,29.59,NW,315,4.5,6.7,20,0.00,,,0.00,VWS V13.01,2013-03-02 23:53:00,
2013-03-02 17:54:00,30.2,-6.0,29.59,WNW,292,4.9,5.8,20,0.00,,,0.00,VWS V13.01,2013-03-02 23:54:00,
2013-03-02 17:55:00,30.2,-6.0,29.59,WNW,292,5.4,8.1,20,0.00,,,0.00,VWS V13.01,2013-03-02 23:55:00,
2013-03-02 17:56:00,30.2,-6.0,29.59,NW,315,6.3,8.1,20,0.00,,,0.00,VWS V13.01,2013-03-02 23:56:00,
2013-03-02 17:57:00,30.0,-6.2,29.59,WNW,292,4.9,6.3,20,0.00,,,0.00,VWS V13.01,2013-03-02 23:57:00,
2013-03-02 17:58:00,30.0,-6.2,29.59,WNW,292,4.9,6.3,20,0.00,,,0.00,VWS V13.01,2013-03-02 23:58:00,
2013-03-02 17:59:00,30.0,-6.2,29.59,NW,315,8.3,8.3,20,0.00,,,0.00,VWS V13.01,2013-03-02 23:59:00,
2013-03-02 18:00:00,30.0,-6.2,29.59,NW,315,6.7,10.1,20,0.00,,,0.00,VWS V13.01,2013-03-03 00:00:00,
2013-03-02 18:01:00,30.0,-6.2,29.59,NW,315,8.7,8.7,20,0.00,,,0.00,VWS V13.01,2013-03-03 00:01:00,
2013-03-02 18:02:00,30.0,-6.2,29.59,WNW,292,0.0,6.3,20,0.00,,,0.00,VWS V13.01,2013-03-03 00:02:00,
2013-03-02 18:03:00,30.0,-6.2,29.59,West,270,2.7,6.3,20,0.00,,,0.00,VWS V13.01,2013-03-03 00:03:00,
2013-03-02 18:04:00,29.8,-6.3,29.59,West,270,4.0,4.9,20,0.00,,,0.00,VWS V13.01,2013-03-03 00:04:00,
2013-03-02 18:05:00,29.8,-6.3,29.59,NW,315,3.6,5.4,20,0.00,,,0.00,VWS V13.01,2013-03-03 00:05:00,
2013-03-02 18:06:00,29.8,-6.3,29.59,WNW,292,4.9,5.4,20,0.00,,,0.00,VWS V13.01,2013-03-03 00:06:00,
2013-03-02 18:07:00,29.8,-6.3,29.59,WNW,292,4.9,4.9,20,0.00,,,0.00,VWS V13.01,2013-03-03 00:07:00,
2013-03-02 18:08:00,29.7,-6.5,29.59,WNW,292,4.9,4.9,20,0.00,,,0.00,VWS V13.01,2013-03-03 00:08:00,
2013-03-02 18:09:00,29.7,-6.5,29.59,West,270,3.6,6.3,20,0.00,,,0.00,VWS V13.01,2013-03-03 00:09:00,
2013-03-02 18:10:00,29.7,-6.5,29.59,West,270,4.0,7.6,20,0.00,,,0.00,VWS V13.01,2013-03-03 00:10:00,
2013-03-02 18:11:00,29.5,-3.7,29.59,WNW,292,4.9,4.9,23,0.00,,,0.00,VWS V13.01,2013-03-03 00:11:00,
2013-03-02 18:12:00,29.5,-3.7,29.59,WNW,292,5.4,5.4,23,0.00,,,0.00,VWS V13.01,2013-03-03 00:12:00,
2013-03-02 18:13:00,29.5,-3.7,29.59,West,270,3.1,5.4,23,0.00,,,0.00,VWS V13.01,2013-03-03 00:13:00,
2013-03-02 18:14:00,29.5,-3.7,29.59,West,270,3.1,4.0,23,0.00,,,0.00,VWS V13.01,2013-03-03 00:14:00,
2013-03-02 18:15:00,29.5,-3.7,29.59,NW,315,2.2,3.1,23,0.00,,,0.00,VWS V13.01,2013-03-03 00:15:00,
2013-03-02 18:16:00,29.3,-3.9,29.59,WNW,292,0.0,2.2,23,0.00,,,0.00,VWS V13.01,2013-03-03 00:16:00,
2013-03-02 18:17:00,29.1,-4.1,29.59,NW,315,6.7,6.7,23,0.00,,,0.00,VWS V13.01,2013-03-03 00:17:00,
2013-03-02 18:18:00,29.1,-4.1,29.59,NW,315,2.7,6.7,23,0.00,,,0.00,VWS V13.01,2013-03-03 00:18:00,
2013-03-02 18:19:00,29.1,-4.1,29.59,NW,315,3.1,4.9,23,0.00,,,0.00,VWS V13.01,2013-03-03 00:19:00,
2013-03-02 18:20:00,29.1,-4.1,29.59,NW,315,4.0,4.0,23,0.00,,,0.00,VWS V13.01,2013-03-03 00:20:00,
2013-03-02 18:21:00,29.1,-4.1,29.59,West,270,0.0,4.0,23,0.00,,,0.00,VWS V13.01,2013-03-03 00:21:00,
2013-03-02 18:22:00,28.9,-4.2,29.59,NW,315,3.6,4.0,23,0.00,,,0.00,VWS V13.01,2013-03-03 00:22:00,
2013-03-02 18:23:00,28.9,-4.2,29.59,NW,315,3.6,4.0,23,0.00,,,0.00,VWS V13.01,2013-03-03 00:23:00,
2013-03-02 18:24:00,28.9,-4.2,29.59,West,270,3.6,4.0,23,0.00,,,0.00,VWS V13.01,2013-03-03 00:24:00,
2013-03-02 18:27:00,28.9,-4.2,29.59,West,270,3.6,4.0,23,0.00,,,0.00,VWS V13.01,2013-03-03 00:27:00,
2013-03-02 18:33:00,28.9,-4.2,29.59,West,270,3.6,4.0,23,0.00,,,0.00,VWS V13.01,2013-03-03 00:33:00,